Time,TemperatureF,DewpointF,PressureIn,WindDirection,WindDirectionDegrees,WindSpeedMPH,WindSpeedGustMPH,Humidity,HourlyPrecipIn,Conditions,Clouds,dailyrainin,SoftwareType,DateUTC
2013-03-09 00:00:00,30.4,26.7,30.37,East,91,0.0,2.0,86,0.00,,,0.00,Wunderground v.1.15,2013-03-09 05:00:00,
2013-03-09 00:06:00,30.5,26.8,30.36,East,91,0.0,0.0,86,0.00,,,0.00,Wunderground v.1.15,2013-03-09 05:06:00,
2013-03-09 00:12:00,30.5,26.8,30.36,East,91,0.0,0.0,86,0.00,,,0.00,Wunderground v.1.15,2013-03-09 05:12:00,
2013-03-09 00:15:00,30.4,26.7,30.35,East,91,0.0,0.0,86,0.00,,,0.00,Wunderground v.1.15,2013-03-09 05:15:00,
2013-03-09 00:16:00,30.5,26.8,30.35,East,91,0.0,0.0,86,0.00,,,0.00,Wunderground v.1.15,2013-03-09 05:16:00,
2013-03-09 00:18:00,30.4,26.7,30.35,East,91,0.0,0.0,86,0.00,,,0.00,Wunderground v.1.15,2013-03-09 05:18:00,
2013-03-09 00:22:00,30.4,26.7,30.35,East,91,0.0,2.0,86,0.00,,,0.00,Wunderground v.1.15,2013-03-09 05:22:00,
2013-03-09 00:24:00,30.4,26.7,30.35,East,91,0.0,2.0,86,0.00,,,0.00,Wunderground v.1.15,2013-03-09 05:24:00,
2013-03-09 00:26:00,30.4,26.7,30.35,East,91,0.0,2.0,86,0.00,,,0.00,Wunderground v.1.15,2013-03-09 05:26:00,
2013-03-09 00:28:00,30.3,26.6,30.35,East,91,1.0,2.0,86,0.00,,,0.00,Wunderground v.1.15,2013-03-09 05:28:00,
2013-03-09 00:31:00,30.3,26.6,30.35,East,91,0.0,0.0,86,0.00,,,0.00,Wunderground v.1.15,2013-03-09 05:31:00,
2013-03-09 00:32:00,30.3,26.6,30.35,East,91,1.0,1.0,86,0.00,,,0.00,Wunderground v.1.15,2013-03-09 05:32:00,
2013-03-09 00:35:00,30.3,26.6,30.35,East,91,0.0,1.0,86,0.00,,,0.00,Wunderground v.1.15,2013-03-09 05:35:00,
2013-03-09 00:37:00,30.3,26.6,30.34,East,91,0.0,1.0,86,0.00,,,0.00,Wunderground v.1.15,2013-03-09 05:37:00,
2013-03-09 00:41:00,30.3,26.6,30.35,East,91,0.0,0.0,86,0.00,,,0.00,Wunderground v.1.15,2013-03-09 05:41:00,
2013-03-09 00:43:00,30.3,26.6,30.35,East,91,0.0,0.0,86,0.00,,,0.00,Wunderground v.1.15,2013-03-09 05:43:00,
2013-03-09 00:47:00,30.2,26.5,30.35,East,91,0.0,0.0,86,0.00,,,0.00,Wunderground v.1.15,2013-03-09 05:47:00,
2013-03-09 00:48:00,30.1,26.4,30.35,East,90,0.0,0.0,86,0.00,,,0.00,Wunderground v.1.15,2013-03-09 05:48:00,
2013-03-09 00:49:00,30.1,26.4,30.35,East,91,0.0,0.0,86,0.00,,,0.00,Wunderground v.1.15,2013-03-09 05:49:00,
2013-03-09 00:54:00,30.0,26.6,30.35,East,91,0.0,0.0,87,0.00,,,0.00,Wunderground v.1.15,2013-03-09 05:54:00,
2013-03-09 00:55:00,30.0,26.6,30.35,East,91,0.0,0.0,87,0.00,,,0.00,Wunderground v.1.15,2013-03-09 05:55:00,
2013-03-09 00:56:00,29.9,26.5,30.35,East,91,0.0,0.0,87,0.00,,,0.00,Wunderground v.1.15,2013-03-09 05:56:00,
2013-03-09 00:57:00,29.9,26.5,30.35,East,91,0.0,0.0,87,0.00,,,0.00,Wunderground v.1.15,2013-03-09 05:57:00,
2013-03-09 01:01:00,30.0,26.6,30.35,East,91,0.0,0.0,87,0.00,,,0.00,Wunderground v.1.15,2013-03-09 06:01:00,
2013-03-09 01:02:00,30.1,27.0,30.35,East,91,1.0,1.0,88,0.00,,,0.00,Wunderground v.1.15,2013-03-09 06:02:00,
2013-03-09 01:03:00,30.1,27.0,30.35,East,91,0.0,1.0,88,0.00,,,0.00,Wunderground v.1.15,2013-03-09 06:03:00,
2013-03-09 01:06:00,30.3,27.2,30.35,East,91,0.0,1.0,88,0.00,,,0.00,Wunderground v.1.15,2013-03-09 06:06:00,
2013-03-09 01:07:00,30.4,27.3,30.35,East,91,0.0,1.0,88,0.00,,,0.00,Wunderground v.1.15,2013-03-09 06:07:00,
2013-03-09 01:10:00,30.5,27.4,30.35,East,91,3.0,3.0,88,0.00,,,0.00,Wunderground v.1.15,2013-03-09 06:10:00,
2013-03-09 01:13:00,30.6,27.5,30.35,East,91,0.0,3.0,88,0.00,,,0.00,Wunderground v.1.15,2013-03-09 06:13:00,
2013-03-09 01:14:00,30.6,27.2,30.35,East,91,0.0,3.0,87,0.00,,,0.00,Wunderground v.1.15,2013-03-09 06:14:00,
2013-03-09 01:16:00,30.6,27.2,30.35,East,91,0.0,3.0,87,0.00,,,0.00,Wunderground v.1.15,2013-03-09 06:16:00,
2013-03-09 01:19:00,30.6,27.2,30.35,East,91,0.0,3.0,87,0.00,,,0.00,Wunderground v.1.15,2013-03-09 06:19:00,
2013-03-09 01:20:00,30.6,27.2,30.35,East,91,2.0,2.0,87,0.00,,,0.00,Wunderground v.1.15,2013-03-09 06:20:00,
2013-03-09 01:23:00,30.7,27.3,30.35,East,91,0.0,2.0,87,0.00,,,0.00,Wunderground v.1.15,2013-03-09 06:23:00,
2013-03-09 01:25:00,30.7,27.3,30.35,East,90,0.0,2.0,87,0.00,,,0.00,Wunderground v.1.15,2013-03-09 06:25:00,
2013-03-09 01:28:00,30.7,27.3,30.35,East,91,0.0,2.0,87,0.00,,,0.00,Wunderground v.1.15,2013-03-09 06:28:00,
2013-03-09 01:30:00,30.7,27.3,30.35,East,91,0.0,0.0,87,0.00,,,0.00,Wunderground v.1.15,2013-03-09 06:30:00,
2013-03-09 01:31:00,30.6,27.2,30.35,East,91,0.0,0.0,87,0.00,,,0.00,Wunderground v.1.15,2013-03-09 06:31:00,
2013-03-09 01:32:00,30.6,27.2,30.35,East,91,0.0,0.0,87,0.00,,,0.00,Wunderground v.1.15,2013-03-09 06:32:00,
2013-03-09 01:36:00,30.5,27.1,30.35,East,91,0.0,0.0,87,0.00,,,0.00,Wunderground v.1.15,2013-03-09 06:36:00,
2013-03-09 01:38:00,30.5,27.1,30.35,East,90,0.0,0.0,87,0.00,,,0.00,Wunderground v.1.15,2013-03-09 06:38:00,
2013-03-09 01:40:00,30.4,27.0,30.35,East,91,0.0,0.0,87,0.00,,,0.00,Wunderground v.1.15,2013-03-09 06:40:00,
2013-03-09 01:42:00,30.4,27.0,30.35,East,90,0.0,0.0,87,0.00,,,0.00,Wunderground v.1.15,2013-03-09 06:42:00,
2013-03-09 01:45:00,30.3,26.9,30.35,East,91,0.0,0.0,87,0.00,,,0.00,Wunderground v.1.15,2013-03-09 06:45:00,
2013-03-09 01:46:00,30.2,26.8,30.35,East,90,0.0,0.0,87,0.00,,,0.00,Wunderground v.1.15,2013-03-09 06:46:00,
2013-03-09 01:47:00,30.2,26.8,30.35,East,90,0.0,0.0,87,0.00,,,0.00,Wunderground v.1.15,2013-03-09 06:47:00,
2013-03-09 01:50:00,30.1,26.7,30.35,East,90,0.0,0.0,87,0.00,,,0.00,Wunderground v.1.15,2013-03-09 06:50:00,
2013-03-09 01:51:00,30.1,26.7,30.35,East,90,0.0,0.0,87,0.00,,,0.00,Wunderground v.1.15,2013-03-09 06:51:00,
2013-03-09 01:52:00,30.0,26.6,30.35,East,91,0.0,0.0,87,0.00,,,0.00,Wunderground v.1.15,2013-03-09 06:52:00,
2013-03-09 01:56:00,29.9,26.8,30.35,East,91,0.0,0.0,88,0.00,,,0.00,Wunderground v.1.15,2013-03-09 06:56:00,
2013-03-09 01:59:00,29.9,26.8,30.35,East,90,0.0,0.0,88,0.00,,,0.00,Wunderground v.1.15,2013-03-09 06:59:00,
2013-03-09 02:00:00,29.9,26.8,30.35,East,91,0.0,0.0,88,0.00,,,0.00,Wunderground v.1.15,2013-03-09 07:00:00,
2013-03-09 02:01:00,29.9,26.8,30.35,East,91,0.0,0.0,88,0.00,,,0.00,Wunderground v.1.15,2013-03-09 07:01:00,
2013-03-09 02:04:00,29.9,26.8,30.35,East,91,0.0,0.0,88,0.00,,,0.00,Wunderground v.1.15,2013-03-09 07:04:00,
2013-03-09 02:05:00,29.9,26.8,30.35,East,90,0.0,0.0,88,0.00,,,0.00,Wunderground v.1.15,2013-03-09 07:05:00,
2013-03-09 02:06:00,29.9,26.8,30.35,East,91,0.0,0.0,88,0.00,,,0.00,Wunderground v.1.15,2013-03-09 07:06:00,
2013-03-09 02:10:00,29.8,26.7,30.35,East,90,0.0,0.0,88,0.00,,,0.00,Wunderground v.1.15,2013-03-09 07:10:00,
2013-03-09 02:11:00,29.8,26.7,30.35,East,91,0.0,0.0,88,0.00,,,0.00,Wunderground v.1.15,2013-03-09 07:11:00,
2013-03-09 02:15:00,29.8,26.7,30.35,East,91,0.0,0.0,88,0.00,,,0.00,Wunderground v.1.15,2013-03-09 07:15:00,
2013-03-09 02:16:00,29.8,26.7,30.35,East,91,0.0,0.0,88,0.00,,,0.00,Wunderground v.1.15,2013-03-09 07:16:00,
2013-03-09 02:20:00,29.8,26.7,30.35,East,90,0.0,0.0,88,0.00,,,0.00,Wunderground v.1.15,2013-03-09 07:20:00,
2013-03-09 02:21:00,29.8,26.7,30.35,East,90,0.0,0.0,88,0.00,,,0.00,Wunderground v.1.15,2013-03-09 07:21:00,
2013-03-09 02:22:00,29.8,26.7,30.35,East,91,0.0,0.0,88,0.00,,,0.00,Wunderground v.1.15,2013-03-09 07:22:00,
2013-03-09 02:25:00,29.9,26.8,30.35,East,91,0.0,0.0,88,0.00,,,0.00,Wunderground v.1.15,2013-03-09 07:25:00,
2013-03-09 02:26:00,29.9,26.8,30.35,East,90,0.0,0.0,88,0.00,,,0.00,Wunderground v.1.15,2013-03-09 07:26:00,
2013-03-09 02:27:00,29.9,26.8,30.35,East,90,0.0,0.0,88,0.00,,,0.00,Wunderground v.1.15,2013-03-09 07:27:00,
2013-03-09 02:31:00,30.1,27.3,30.34,East,91,0.0,0.0,89,0.00,,,0.00,Wunderground v.1.15,2013-03-09 07:31:00,
2013-03-09 02:32:00,30.1,27.3,30.34,East,91,0.0,1.0,89,0.00,,,0.00,Wunderground v.1.15,2013-03-09 07:32:00,
2013-03-09 02:36:00,30.3,27.2,30.33,East,90,0.0,2.0,88,0.00,,,0.00,Wunderground v.1.15,2013-03-09 07:36:00,
2013-03-09 02:37:00,30.3,27.2,30.33,East,91,1.0,4.0,88,0.00,,,0.00,Wunderground v.1.15,2013-03-09 07:37:00,
2013-03-09 02:41:00,30.3,27.2,30.33,East,90,0.0,0.0,88,0.00,,,0.00,Wunderground v.1.15,2013-03-09 07:41:00,
2013-03-09 02:42:00,30.3,27.2,30.33,East,91,0.0,2.0,88,0.00,,,0.00,Wunderground v.1.15,2013-03-09 07:42:00,
2013-03-09 02:46:00,30.2,27.1,30.33,East,91,0.0,2.0,88,0.00,,,0.00,Wunderground v.1.15,2013-03-09 07:46:00,
2013-03-09 02:47:00,30.2,26.8,30.33,East,91,0.0,2.0,87,0.00,,,0.00,Wunderground v.1.15,2013-03-09 07:47:00,
2013-03-09 02:51:00,30.1,26.7,30.33,East,90,0.0,0.0,87,0.00,,,0.00,Wunderground v.1.15,2013-03-09 07:51:00,
2013-03-09 02:52:00,30.0,26.6,30.33,East,90,0.0,0.0,87,0.00,,,0.00,Wunderground v.1.15,2013-03-09 07:52:00,
2013-03-09 02:56:00,29.9,26.5,30.33,East,91,0.0,0.0,87,0.00,,,0.00,Wunderground v.1.15,2013-03-09 07:56:00,
2013-03-09 02:57:00,29.8,26.4,30.32,East,91,0.0,0.0,87,0.00,,,0.00,Wunderground v.1.15,2013-03-09 07:57:00,
2013-03-09 02:58:00,29.8,26.4,30.32,East,91,0.0,0.0,87,0.00,,,0.00,Wunderground v.1.15,2013-03-09 07:58:00,
2013-03-09 03:01:00,29.8,26.4,30.32,East,91,0.0,0.0,87,0.00,,,0.00,Wunderground v.1.15,2013-03-09 08:01:00,
2013-03-09 03:02:00,29.7,26.3,30.32,East,90,0.0,1.0,87,0.00,,,0.00,Wunderground v.1.15,2013-03-09 08:02:00,
2013-03-09 03:03:00,29.7,26.3,30.32,East,91,0.0,1.0,87,0.00,,,0.00,Wunderground v.1.15,2013-03-09 08:03:00,
2013-03-09 03:06:00,29.7,26.6,30.32,East,91,0.0,2.0,88,0.00,,,0.00,Wunderground v.1.15,2013-03-09 08:06:00,
2013-03-09 03:07:00,29.7,26.6,30.32,East,91,0.0,2.0,88,0.00,,,0.00,Wunderground v.1.15,2013-03-09 08:07:00,
2013-03-09 03:08:00,29.7,26.6,30.31,East,90,0.0,2.0,88,0.00,,,0.00,Wunderground v.1.15,2013-03-09 08:08:00,
2013-03-09 03:11:00,29.7,26.6,30.31,East,90,0.0,0.0,88,0.00,,,0.00,Wunderground v.1.15,2013-03-09 08:11:00,
2013-03-09 03:13:00,29.7,26.6,30.31,East,90,0.0,0.0,88,0.00,,,0.00,Wunderground v.1.15,2013-03-09 08:13:00,
2013-03-09 03:16:00,29.7,26.6,30.31,East,91,0.0,0.0,88,0.00,,,0.00,Wunderground v.1.15,2013-03-09 08:16:00,
2013-03-09 03:18:00,29.7,26.6,30.31,East,90,0.0,0.0,88,0.00,,,0.00,Wunderground v.1.15,2013-03-09 08:18:00,
2013-03-09 03:21:00,29.7,26.6,30.30,East,91,2.0,3.0,88,0.00,,,0.00,Wunderground v.1.15,2013-03-09 08:21:00,
2013-03-09 03:23:00,29.7,26.6,30.30,East,91,2.0,3.0,88,0.00,,,0.00,Wunderground v.1.15,2013-03-09 08:23:00,
2013-03-09 03:27:00,29.8,26.7,30.29,East,90,4.0,4.0,88,0.00,,,0.00,Wunderground v.1.15,2013-03-09 08:27:00,
2013-03-09 03:28:00,29.8,26.7,30.29,East,90,2.0,5.0,88,0.00,,,0.00,Wunderground v.1.15,2013-03-09 08:28:00,
2013-03-09 03:32:00,30.1,27.0,30.29,East,91,2.0,5.0,88,0.00,,,0.00,Wunderground v.1.15,2013-03-09 08:32:00,
2013-03-09 03:33:00,30.2,27.1,30.29,East,92,6.0,6.0,88,0.00,,,0.00,Wunderground v.1.15,2013-03-09 08:33:00,
2013-03-09 03:37:00,30.6,27.5,30.28,East,92,2.0,6.0,88,0.00,,,0.00,Wunderground v.1.15,2013-03-09 08:37:00,
2013-03-09 03:38:00,30.8,27.7,30.28,East,93,3.0,6.0,88,0.00,,,0.00,Wunderground v.1.15,2013-03-09 08:38:00,
2013-03-09 03:39:00,30.8,27.7,30.28,East,93,3.0,6.0,88,0.00,,,0.00,Wunderground v.1.15,2013-03-09 08:39:00,
2013-03-09 03:42:00,31.2,28.1,30.28,East,96,4.0,7.0,88,0.00,,,0.00,Wunderground v.1.15,2013-03-09 08:42:00,
2013-03-09 03:43:00,31.3,27.9,30.28,East,97,2.0,7.0,87,0.00,,,0.00,Wunderground v.1.15,2013-03-09 08:43:00,
2013-03-09 03:44:00,31.4,28.0,30.28,East,98,2.0,7.0,87,0.00,,,0.00,Wunderground v.1.15,2013-03-09 08:44:00,
2013-03-09 03:47:00,31.7,28.3,30.28,East,98,0.0,7.0,87,0.00,,,0.00,Wunderground v.1.15,2013-03-09 08:47:00,
2013-03-09 03:48:00,31.8,28.1,30.28,East,98,3.0,7.0,86,0.00,,,0.00,Wunderground v.1.15,2013-03-09 08:48:00,
2013-03-09 03:49:00,31.9,28.2,30.28,East,99,4.0,7.0,86,0.00,,,0.00,Wunderground v.1.15,2013-03-09 08:49:00,
2013-03-09 03:50:00,31.9,28.2,30.28,East,99,2.0,3.0,86,0.00,,,0.00,Wunderground v.1.15,2013-03-09 08:50:00,
2013-03-09 03:52:00,32.2,28.5,30.28,East,101,3.0,5.0,86,0.00,,,0.00,Wunderground v.1.15,2013-03-09 08:52:00,
2013-03-09 03:53:00,32.3,28.3,30.28,East,101,3.0,5.0,85,0.00,,,0.00,Wunderground v.1.15,2013-03-09 08:53:00,
2013-03-09 03:54:00,32.3,28.3,30.28,East,101,5.0,5.0,85,0.00,,,0.00,Wunderground v.1.15,2013-03-09 08:54:00,
2013-03-09 03:55:00,32.4,28.4,30.28,ESE,102,2.0,5.0,85,0.00,,,0.00,Wunderground v.1.15,2013-03-09 08:55:00,
2013-03-09 03:57:00,32.5,28.5,30.28,ESE,102,0.0,5.0,85,0.00,,,0.00,Wunderground v.1.15,2013-03-09 08:57:00,
2013-03-09 03:58:00,32.5,28.5,30.28,East,101,3.0,5.0,85,0.00,,,0.00,Wunderground v.1.15,2013-03-09 08:58:00,
2013-03-09 03:59:00,32.5,28.5,30.28,ESE,102,1.0,5.0,85,0.00,,,0.00,Wunderground v.1.15,2013-03-09 08:59:00,
2013-03-09 04:01:00,32.5,28.5,30.28,East,101,1.0,4.0,85,0.00,,,0.00,Wunderground v.1.15,2013-03-09 09:01:00,
2013-03-09 04:02:00,32.6,28.3,30.28,East,101,2.0,6.0,84,0.00,,,0.00,Wunderground v.1.15,2013-03-09 09:02:00,
2013-03-09 04:03:00,32.7,28.4,30.27,East,101,2.0,6.0,84,0.00,,,0.00,Wunderground v.1.15,2013-03-09 09:03:00,
2013-03-09 04:04:00,32.7,28.4,30.28,East,101,2.0,6.0,84,0.00,,,0.00,Wunderground v.1.15,2013-03-09 09:04:00,
2013-03-09 04:06:00,32.8,28.8,30.28,ESE,103,5.0,6.0,85,0.00,,,0.00,Wunderground v.1.15,2013-03-09 09:06:00,
2013-03-09 04:08:00,32.9,28.6,30.28,ESE,105,6.0,6.0,84,0.00,,,0.00,Wunderground v.1.15,2013-03-09 09:08:00,
2013-03-09 04:09:00,32.9,28.6,30.28,ESE,107,3.0,6.0,84,0.00,,,0.00,Wunderground v.1.15,2013-03-09 09:09:00,
2013-03-09 04:11:00,33.0,28.7,30.27,ESE,109,4.0,6.0,84,0.00,,,0.00,Wunderground v.1.15,2013-03-09 09:11:00,
2013-03-09 04:13:00,33.2,28.9,30.27,ESE,111,2.0,7.0,84,0.00,,,0.00,Wunderground v.1.15,2013-03-09 09:13:00,
2013-03-09 04:14:00,33.2,28.9,30.27,ESE,111,3.0,7.0,84,0.00,,,0.00,Wunderground v.1.15,2013-03-09 09:14:00,
2013-03-09 04:16:00,33.4,28.8,30.27,ESE,111,4.0,7.0,83,0.00,,,0.00,Wunderground v.1.15,2013-03-09 09:16:00,
2013-03-09 04:18:00,33.6,29.0,30.27,ESE,111,8.0,10.0,83,0.00,,,0.00,Wunderground v.1.15,2013-03-09 09:18:00,
2013-03-09 04:19:00,33.7,29.1,30.27,ESE,106,12.0,12.0,83,0.00,,,0.00,Wunderground v.1.15,2013-03-09 09:19:00,
2013-03-09 04:21:00,33.9,29.0,30.27,ESE,114,11.0,12.0,82,0.00,,,0.00,Wunderground v.1.15,2013-03-09 09:21:00,
2013-03-09 04:23:00,34.3,29.1,30.27,East,99,9.0,12.0,81,0.00,,,0.00,Wunderground v.1.15,2013-03-09 09:23:00,
2013-03-09 04:24:00,34.4,29.2,30.27,East,99,5.0,12.0,81,0.00,,,0.00,Wunderground v.1.15,2013-03-09 09:24:00,
2013-03-09 04:25:00,34.4,29.2,30.27,East,99,5.0,12.0,81,0.00,,,0.00,Wunderground v.1.15,2013-03-09 09:25:00,
2013-03-09 04:26:00,34.4,29.2,30.27,East,99,5.0,12.0,81,0.00,,,0.00,Wunderground v.1.15,2013-03-09 09:26:00,
2013-03-09 04:28:00,34.5,29.0,30.27,ESE,107,3.0,12.0,80,0.00,,,0.00,Wunderground v.1.15,2013-03-09 09:28:00,
2013-03-09 04:29:00,34.5,29.0,30.27,ESE,107,2.0,12.0,80,0.00,,,0.00,Wunderground v.1.15,2013-03-09 09:29:00,
2013-03-09 04:30:00,34.6,29.1,30.27,East,97,6.0,12.0,80,0.00,,,0.00,Wunderground v.1.15,2013-03-09 09:30:00,
2013-03-09 04:32:00,34.7,29.2,30.27,East,97,11.0,11.0,80,0.00,,,0.00,Wunderground v.1.15,2013-03-09 09:32:00,
2013-03-09 04:34:00,34.8,29.3,30.27,ESE,117,5.0,12.0,80,0.00,,,0.00,Wunderground v.1.15,2013-03-09 09:34:00,
2013-03-09 04:35:00,34.9,29.0,30.27,ESE,117,2.0,12.0,79,0.00,,,0.00,Wunderground v.1.15,2013-03-09 09:35:00,
2013-03-09 04:37:00,34.9,29.0,30.28,ESE,118,8.0,12.0,79,0.00,,,0.00,Wunderground v.1.15,2013-03-09 09:37:00,
2013-03-09 04:39:00,35.0,29.1,30.27,ESE,121,3.0,12.0,79,0.00,,,0.00,Wunderground v.1.15,2013-03-09 09:39:00,
2013-03-09 04:40:00,35.1,29.2,30.27,ESE,121,3.0,12.0,79,0.00,,,0.00,Wunderground v.1.15,2013-03-09 09:40:00,
2013-03-09 04:42:00,35.1,29.2,30.27,SE,128,2.0,10.0,79,0.00,,,0.00,Wunderground v.1.15,2013-03-09 09:42:00,
2013-03-09 04:44:00,35.1,29.2,30.27,SE,127,3.0,10.0,79,0.00,,,0.00,Wunderground v.1.15,2013-03-09 09:44:00,
2013-03-09 04:45:00,35.1,29.2,30.27,SE,128,5.0,10.0,79,0.00,,,0.00,Wunderground v.1.15,2013-03-09 09:45:00,
2013-03-09 04:47:00,35.2,29.3,30.28,SE,130,5.0,10.0,79,0.00,,,0.00,Wunderground v.1.15,2013-03-09 09:47:00,
2013-03-09 04:49:00,35.2,29.3,30.28,ESE,122,8.0,10.0,79,0.00,,,0.00,Wunderground v.1.15,2013-03-09 09:49:00,
2013-03-09 04:50:00,35.2,29.3,30.28,ESE,114,3.0,5.0,79,0.00,,,0.00,Wunderground v.1.15,2013-03-09 09:50:00,
2013-03-09 04:52:00,35.2,29.3,30.28,ESE,115,2.0,5.0,79,0.00,,,0.00,Wunderground v.1.15,2013-03-09 09:52:00,
2013-03-09 04:54:00,35.2,29.3,30.28,ESE,115,2.0,5.0,79,0.00,,,0.00,Wunderground v.1.15,2013-03-09 09:54:00,
2013-03-09 04:55:00,35.2,29.3,30.29,ESE,116,3.0,5.0,79,0.00,,,0.00,Wunderground v.1.15,2013-03-09 09:55:00,
2013-03-09 04:57:00,35.2,29.3,30.29,ESE,116,2.0,5.0,79,0.00,,,0.00,Wunderground v.1.15,2013-03-09 09:57:00,
2013-03-09 04:59:00,35.1,29.2,30.29,ESE,119,3.0,5.0,79,0.00,,,0.00,Wunderground v.1.15,2013-03-09 09:59:00,
2013-03-09 05:00:00,35.2,29.3,30.29,ESE,119,2.0,3.0,79,0.00,,,0.00,Wunderground v.1.15,2013-03-09 10:00:00,
2013-03-09 05:01:00,35.2,29.3,30.29,ESE,119,0.0,3.0,79,0.00,,,0.00,Wunderground v.1.15,2013-03-09 10:01:00,
2013-03-09 05:02:00,35.1,29.2,30.29,ESE,119,2.0,3.0,79,0.00,,,0.00,Wunderground v.1.15,2013-03-09 10:02:00,
2013-03-09 05:05:00,35.2,29.3,30.29,ESE,119,2.0,5.0,79,0.00,,,0.00,Wunderground v.1.15,2013-03-09 10:05:00,
2013-03-09 05:06:00,35.1,29.2,30.28,ESE,119,5.0,6.0,79,0.00,,,0.00,Wunderground v.1.15,2013-03-09 10:06:00,
2013-03-09 05:07:00,35.1,29.2,30.28,ESE,118,4.0,6.0,79,0.00,,,0.00,Wunderground v.1.15,2013-03-09 10:07:00,
2013-03-09 05:10:00,35.1,29.2,30.28,ESE,115,2.0,7.0,79,0.00,,,0.00,Wunderground v.1.15,2013-03-09 10:10:00,
2013-03-09 05:11:00,35.1,29.2,30.29,ESE,115,3.0,5.0,79,0.00,,,0.00,Wunderground v.1.15,2013-03-09 10:11:00,
2013-03-09 05:12:00,35.1,29.2,30.29,ESE,115,3.0,6.0,79,0.00,,,0.00,Wunderground v.1.15,2013-03-09 10:12:00,
2013-03-09 05:15:00,35.1,29.2,30.29,ESE,115,0.0,6.0,79,0.00,,,0.00,Wunderground v.1.15,2013-03-09 10:15:00,
2013-03-09 05:16:00,35.1,29.2,30.29,ESE,115,2.0,6.0,79,0.00,,,0.00,Wunderground v.1.15,2013-03-09 10:16:00,
2013-03-09 05:17:00,35.1,29.2,30.29,ESE,115,0.0,6.0,79,0.00,,,0.00,Wunderground v.1.15,2013-03-09 10:17:00,
2013-03-09 05:20:00,35.0,29.1,30.29,ESE,114,3.0,4.0,79,0.00,,,0.00,Wunderground v.1.15,2013-03-09 10:20:00,
2013-03-09 05:21:00,35.1,29.2,30.29,ESE,114,0.0,5.0,79,0.00,,,0.00,Wunderground v.1.15,2013-03-09 10:21:00,
2013-03-09 05:23:00,35.0,29.1,30.30,ESE,114,2.0,5.0,79,0.00,,,0.00,Wunderground v.1.15,2013-03-09 10:23:00,
2013-03-09 05:25:00,35.1,29.2,30.30,ESE,114,0.0,5.0,79,0.00,,,0.00,Wunderground v.1.15,2013-03-09 10:25:00,
2013-03-09 05:26:00,35.0,29.1,30.30,ESE,114,1.0,5.0,79,0.00,,,0.00,Wunderground v.1.15,2013-03-09 10:26:00,
2013-03-09 05:28:00,35.1,29.2,30.30,ESE,113,1.0,5.0,79,0.00,,,0.00,Wunderground v.1.15,2013-03-09 10:28:00,
2013-03-09 05:30:00,35.1,29.2,30.30,ESE,114,1.0,2.0,79,0.00,,,0.00,Wunderground v.1.15,2013-03-09 10:30:00,
2013-03-09 05:31:00,35.1,29.2,30.29,ESE,113,1.0,2.0,79,0.00,,,0.00,Wunderground v.1.15,2013-03-09 10:31:00,
2013-03-09 05:33:00,35.1,29.2,30.29,ESE,113,1.0,4.0,79,0.00,,,0.00,Wunderground v.1.15,2013-03-09 10:33:00,
2013-03-09 05:35:00,35.0,29.1,30.30,ESE,114,1.0,4.0,79,0.00,,,0.00,Wunderground v.1.15,2013-03-09 10:35:00,
2013-03-09 05:36:00,35.0,29.1,30.29,ESE,113,3.0,4.0,79,0.00,,,0.00,Wunderground v.1.15,2013-03-09 10:36:00,
2013-03-09 05:37:00,35.0,29.1,30.29,ESE,113,3.0,4.0,79,0.00,,,0.00,Wunderground v.1.15,2013-03-09 10:37:00,
2013-03-09 05:38:00,35.0,29.1,30.29,ESE,114,4.0,5.0,79,0.00,,,0.00,Wunderground v.1.15,2013-03-09 10:38:00,
2013-03-09 05:41:00,35.0,29.1,30.29,ESE,113,2.0,3.0,79,0.00,,,0.00,Wunderground v.1.15,2013-03-09 10:41:00,
2013-03-09 05:42:00,35.0,29.1,30.29,ESE,114,0.0,3.0,79,0.00,,,0.00,Wunderground v.1.15,2013-03-09 10:42:00,
2013-03-09 05:43:00,34.9,29.0,30.29,ESE,114,0.0,3.0,79,0.00,,,0.00,Wunderground v.1.15,2013-03-09 10:43:00,
2013-03-09 05:46:00,34.9,29.0,30.30,ESE,113,0.0,3.0,79,0.00,,,0.00,Wunderground v.1.15,2013-03-09 10:46:00,
2013-03-09 05:47:00,34.9,29.0,30.29,ESE,114,1.0,3.0,79,0.00,,,0.00,Wunderground v.1.15,2013-03-09 10:47:00,
2013-03-09 05:48:00,34.8,29.0,30.30,ESE,113,0.0,3.0,79,0.00,,,0.00,Wunderground v.1.15,2013-03-09 10:48:00,
2013-03-09 05:51:00,34.8,29.0,30.30,ESE,114,3.0,3.0,79,0.00,,,0.00,Wunderground v.1.15,2013-03-09 10:51:00,
2013-03-09 05:52:00,34.8,29.0,30.29,ESE,114,0.0,3.0,79,0.00,,,0.00,Wunderground v.1.15,2013-03-09 10:52:00,
2013-03-09 05:54:00,34.8,29.0,30.30,ESE,114,0.0,3.0,79,0.00,,,0.00,Wunderground v.1.15,2013-03-09 10:54:00,
2013-03-09 05:56:00,34.8,29.0,30.30,ESE,114,0.0,3.0,79,0.00,,,0.00,Wunderground v.1.15,2013-03-09 10:56:00,
2013-03-09 05:57:00,34.7,28.9,30.30,ESE,113,0.0,3.0,79,0.00,,,0.00,Wunderground v.1.15,2013-03-09 10:57:00,
2013-03-09 05:59:00,34.7,28.9,30.30,ESE,114,1.0,3.0,79,0.00,,,0.00,Wunderground v.1.15,2013-03-09 10:59:00,
2013-03-09 06:01:00,34.7,28.9,30.29,ESE,114,3.0,5.0,79,0.00,,,0.00,Wunderground v.1.15,2013-03-09 11:01:00,
2013-03-09 06:02:00,34.7,29.2,30.30,ESE,114,1.0,5.0,80,0.00,,,0.00,Wunderground v.1.15,2013-03-09 11:02:00,
2013-03-09 06:04:00,34.7,29.2,30.30,ESE,113,0.0,5.0,80,0.00,,,0.00,Wunderground v.1.15,2013-03-09 11:04:00,
2013-03-09 06:06:00,34.7,29.2,30.30,ESE,114,0.0,5.0,80,0.00,,,0.00,Wunderground v.1.15,2013-03-09 11:06:00,
2013-03-09 06:07:00,34.7,29.2,30.30,ESE,114,0.0,5.0,80,0.00,,,0.00,Wunderground v.1.15,2013-03-09 11:07:00,
2013-03-09 06:09:00,34.7,29.2,30.30,ESE,113,0.0,5.0,80,0.00,,,0.00,Wunderground v.1.15,2013-03-09 11:09:00,
2013-03-09 06:11:00,34.7,29.2,30.30,ESE,114,1.0,2.0,80,0.00,,,0.00,Wunderground v.1.15,2013-03-09 11:11:00,
2013-03-09 06:12:00,34.6,29.1,30.30,ESE,114,0.0,2.0,80,0.00,,,0.00,Wunderground v.1.15,2013-03-09 11:12:00,
2013-03-09 06:13:00,34.7,29.2,30.30,ESE,113,1.0,2.0,80,0.00,,,0.00,Wunderground v.1.15,2013-03-09 11:13:00,
2013-03-09 06:15:00,34.7,29.2,30.30,ESE,114,2.0,3.0,80,0.00,,,0.00,Wunderground v.1.15,2013-03-09 11:15:00,
2013-03-09 06:17:00,34.6,29.1,30.29,ESE,114,5.0,5.0,80,0.00,,,0.00,Wunderground v.1.15,2013-03-09 11:17:00,
2013-03-09 06:18:00,34.7,29.2,30.30,ESE,113,4.0,5.0,80,0.00,,,0.00,Wunderground v.1.15,2013-03-09 11:18:00,
2013-03-09 06:20:00,34.7,29.2,30.30,ESE,114,2.0,2.0,80,0.00,,,0.00,Wunderground v.1.15,2013-03-09 11:20:00,
2013-03-09 06:22:00,34.7,29.2,30.30,ESE,113,2.0,3.0,80,0.00,,,0.00,Wunderground v.1.15,2013-03-09 11:22:00,
2013-03-09 06:23:00,34.7,29.2,30.30,ESE,113,2.0,4.0,80,0.00,,,0.00,Wunderground v.1.15,2013-03-09 11:23:00,
2013-03-09 06:25:00,34.7,29.2,30.30,ESE,113,2.0,4.0,80,0.00,,,0.00,Wunderground v.1.15,2013-03-09 11:25:00,
2013-03-09 06:27:00,34.7,29.2,30.30,ESE,114,5.0,5.0,80,0.00,,,0.00,Wunderground v.1.15,2013-03-09 11:27:00,
2013-03-09 06:28:00,34.7,29.2,30.30,ESE,114,0.0,5.0,80,0.00,,,0.00,Wunderground v.1.15,2013-03-09 11:28:00,
2013-03-09 06:31:00,34.7,28.9,30.30,ESE,114,2.0,3.0,79,0.00,,,0.00,Wunderground v.1.15,2013-03-09 11:31:00,
2013-03-09 06:32:00,34.7,28.9,30.29,ESE,114,0.0,3.0,79,0.00,,,0.00,Wunderground v.1.15,2013-03-09 11:32:00,
2013-03-09 06:33:00,34.7,29.2,30.29,ESE,114,0.0,3.0,80,0.00,,,0.00,Wunderground v.1.15,2013-03-09 11:33:00,
2013-03-09 06:36:00,34.7,29.2,30.30,ESE,113,0.0,4.0,80,0.00,,,0.00,Wunderground v.1.15,2013-03-09 11:36:00,
2013-03-09 06:37:00,34.7,29.2,30.30,ESE,113,0.0,4.0,80,0.00,,,0.00,Wunderground v.1.15,2013-03-09 11:37:00,
2013-03-09 06:38:00,34.7,29.2,30.30,ESE,113,0.0,4.0,80,0.00,,,0.00,Wunderground v.1.15,2013-03-09 11:38:00,
2013-03-09 06:41:00,34.7,28.9,30.30,ESE,114,2.0,3.0,79,0.00,,,0.00,Wunderground v.1.15,2013-03-09 11:41:00,
2013-03-09 06:42:00,34.7,28.9,30.30,ESE,113,0.0,3.0,79,0.00,,,0.00,Wunderground v.1.15,2013-03-09 11:42:00,
2013-03-09 06:43:00,34.6,28.8,30.30,ESE,114,2.0,3.0,79,0.00,,,0.00,Wunderground v.1.15,2013-03-09 11:43:00,
2013-03-09 06:46:00,34.6,28.8,30.30,ESE,114,0.0,3.0,79,0.00,,,0.00,Wunderground v.1.15,2013-03-09 11:46:00,
2013-03-09 06:47:00,34.6,28.8,30.30,ESE,114,0.0,3.0,79,0.00,,,0.00,Wunderground v.1.15,2013-03-09 11:47:00,
2013-03-09 06:48:00,34.7,29.2,30.30,ESE,114,3.0,3.0,80,0.00,,,0.00,Wunderground v.1.15,2013-03-09 11:48:00,
2013-03-09 06:51:00,34.6,28.8,30.30,ESE,114,3.0,3.0,79,0.00,,,0.00,Wunderground v.1.15,2013-03-09 11:51:00,
2013-03-09 06:52:00,34.6,29.1,30.30,ESE,114,2.0,3.0,80,0.00,,,0.00,Wunderground v.1.15,2013-03-09 11:52:00,
2013-03-09 06:53:00,34.6,28.8,30.30,ESE,113,0.0,3.0,79,0.00,,,0.00,Wunderground v.1.15,2013-03-09 11:53:00,
2013-03-09 06:56:00,34.6,28.8,30.30,ESE,114,0.0,3.0,79,0.00,,,0.00,Wunderground v.1.15,2013-03-09 11:56:00,
2013-03-09 06:58:00,34.5,28.7,30.30,ESE,113,0.0,3.0,79,0.00,,,0.00,Wunderground v.1.15,2013-03-09 11:58:00,
2013-03-09 06:59:00,34.5,28.7,30.30,ESE,113,0.0,3.0,79,0.00,,,0.00,Wunderground v.1.15,2013-03-09 11:59:00,
2013-03-09 07:01:00,34.5,28.7,30.30,ESE,114,1.0,4.0,79,0.00,,,0.00,Wunderground v.1.15,2013-03-09 12:01:00,
2013-03-09 07:03:00,34.5,28.7,30.30,ESE,114,0.0,4.0,79,0.00,,,0.00,Wunderground v.1.15,2013-03-09 12:03:00,
2013-03-09 07:04:00,34.5,28.7,30.30,ESE,113,2.0,4.0,79,0.00,,,0.00,Wunderground v.1.15,2013-03-09 12:04:00,
2013-03-09 07:06:00,34.5,29.0,30.29,ESE,113,2.0,4.0,80,0.00,,,0.00,Wunderground v.1.15,2013-03-09 12:06:00,
2013-03-09 07:09:00,34.5,29.0,30.29,ESE,114,2.0,5.0,80,0.00,,,0.00,Wunderground v.1.15,2013-03-09 12:09:00,
2013-03-09 07:11:00,34.4,28.9,30.29,ESE,113,4.0,4.0,80,0.00,,,0.00,Wunderground v.1.15,2013-03-09 12:11:00,
2013-03-09 07:14:00,34.4,28.9,30.29,ESE,113,2.0,4.0,80,0.00,,,0.00,Wunderground v.1.15,2013-03-09 12:14:00,
2013-03-09 07:17:00,34.4,28.9,30.29,ESE,114,0.0,4.0,80,0.00,,,0.00,Wunderground v.1.15,2013-03-09 12:17:00,
2013-03-09 07:19:00,34.4,28.9,30.29,ESE,114,0.0,4.0,80,0.00,,,0.00,Wunderground v.1.15,2013-03-09 12:19:00,
2013-03-09 07:22:00,34.4,28.9,30.29,ESE,114,0.0,2.0,80,0.00,,,0.00,Wunderground v.1.15,2013-03-09 12:22:00,
2013-03-09 07:24:00,34.4,28.9,30.29,ESE,114,0.0,2.0,80,0.00,,,0.00,Wunderground v.1.15,2013-03-09 12:24:00,
2013-03-09 07:27:00,34.4,28.9,30.29,ESE,114,0.0,2.0,80,0.00,,,0.00,Wunderground v.1.15,2013-03-09 12:27:00,
2013-03-09 07:29:00,34.4,28.9,30.30,ESE,114,1.0,2.0,80,0.00,,,0.00,Wunderground v.1.15,2013-03-09 12:29:00,
2013-03-09 07:32:00,34.4,28.9,30.30,ESE,113,1.0,3.0,80,0.00,,,0.00,Wunderground v.1.15,2013-03-09 12:32:00,
2013-03-09 07:34:00,34.5,29.0,30.29,ESE,114,0.0,3.0,80,0.00,,,0.00,Wunderground v.1.15,2013-03-09 12:34:00,
2013-03-09 07:37:00,34.7,29.2,30.29,ESE,114,3.0,5.0,80,0.00,,,0.00,Wunderground v.1.15,2013-03-09 12:37:00,
2013-03-09 07:39:00,34.8,29.3,30.29,East,86,1.0,5.0,80,0.00,,,0.00,Wunderground v.1.15,2013-03-09 12:39:00,
2013-03-09 07:40:00,34.8,29.3,30.29,East,86,0.0,1.0,80,0.00,,,0.00,Wunderground v.1.15,2013-03-09 12:40:00,
2013-03-09 07:43:00,35.0,29.5,30.29,ESE,119,0.0,5.0,80,0.00,,,0.00,Wunderground v.1.15,2013-03-09 12:43:00,
2013-03-09 07:44:00,35.0,29.5,30.29,ESE,119,1.0,5.0,80,0.00,,,0.00,Wunderground v.1.15,2013-03-09 12:44:00,
2013-03-09 07:45:00,35.0,29.5,30.29,ESE,119,0.0,5.0,80,0.00,,,0.00,Wunderground v.1.15,2013-03-09 12:45:00,
2013-03-09 07:48:00,35.1,29.6,30.29,ESE,119,0.0,5.0,80,0.00,,,0.00,Wunderground v.1.15,2013-03-09 12:48:00,
2013-03-09 07:49:00,35.2,29.6,30.29,ESE,119,0.0,5.0,80,0.00,,,0.00,Wunderground v.1.15,2013-03-09 12:49:00,
2013-03-09 07:50:00,35.2,29.6,30.29,ESE,119,0.0,1.0,80,0.00,,,0.00,Wunderground v.1.15,2013-03-09 12:50:00,
2013-03-09 07:53:00,35.3,29.7,30.29,ESE,119,2.0,4.0,80,0.00,,,0.00,Wunderground v.1.15,2013-03-09 12:53:00,
2013-03-09 07:55:00,35.3,29.7,30.30,ESE,119,0.0,4.0,80,0.00,,,0.00,Wunderground v.1.15,2013-03-09 12:55:00,
2013-03-09 07:58:00,35.5,29.9,30.30,ESE,119,0.0,4.0,80,0.00,,,0.00,Wunderground v.1.15,2013-03-09 12:58:00,
2013-03-09 08:00:00,35.5,29.9,30.30,ESE,119,1.0,1.0,80,0.00,,,0.00,Wunderground v.1.15,2013-03-09 13:00:00,
2013-03-09 08:03:00,35.6,30.0,30.29,ESE,119,0.0,4.0,80,0.00,,,0.00,Wunderground v.1.15,2013-03-09 13:03:00,
2013-03-09 08:05:00,35.7,30.1,30.29,ESE,119,3.0,4.0,80,0.00,,,0.00,Wunderground v.1.15,2013-03-09 13:05:00,
2013-03-09 08:06:00,35.8,30.2,30.29,ESE,119,3.0,4.0,80,0.00,,,0.00,Wunderground v.1.15,2013-03-09 13:06:00,
2013-03-09 08:08:00,35.9,30.0,30.29,ESE,111,3.0,6.0,79,0.00,,,0.00,Wunderground v.1.15,2013-03-09 13:08:00,
2013-03-09 08:10:00,36.0,29.8,30.28,East,97,5.0,10.0,78,0.00,,,0.00,Wunderground v.1.15,2013-03-09 13:10:00,
2013-03-09 08:11:00,36.1,29.9,30.28,East,98,6.0,10.0,78,0.00,,,0.00,Wunderground v.1.15,2013-03-09 13:11:00,
2013-03-09 08:13:00,36.2,30.0,30.27,ESE,106,7.0,10.0,78,0.00,,,0.00,Wunderground v.1.15,2013-03-09 13:13:00,
2013-03-09 08:15:00,36.4,29.9,30.27,ESE,109,7.0,10.0,77,0.00,,,0.00,Wunderground v.1.15,2013-03-09 13:15:00,
2013-03-09 08:16:00,36.5,30.0,30.27,East,93,7.0,11.0,77,0.00,,,0.00,Wunderground v.1.15,2013-03-09 13:16:00,
2013-03-09 08:19:00,36.6,30.1,30.27,ESE,105,8.0,11.0,77,0.00,,,0.00,Wunderground v.1.15,2013-03-09 13:19:00,
2013-03-09 08:20:00,36.8,29.9,30.27,ESE,117,6.0,12.0,76,0.00,,,0.00,Wunderground v.1.15,2013-03-09 13:20:00,
2013-03-09 08:23:00,36.9,30.0,30.27,ESE,120,5.0,13.0,76,0.00,,,0.00,Wunderground v.1.15,2013-03-09 13:23:00,
2013-03-09 08:24:00,37.0,29.8,30.27,ESE,120,3.0,13.0,75,0.00,,,0.00,Wunderground v.1.15,2013-03-09 13:24:00,
2013-03-09 08:25:00,37.1,30.2,30.27,ESE,111,9.0,13.0,76,0.00,,,0.00,Wunderground v.1.15,2013-03-09 13:25:00,
2013-03-09 08:29:00,37.4,30.2,30.27,ESE,120,3.0,13.0,75,0.00,,,0.00,Wunderground v.1.15,2013-03-09 13:29:00,
2013-03-09 08:30:00,37.5,30.3,30.27,ESE,119,1.0,5.0,75,0.00,,,0.00,Wunderground v.1.15,2013-03-09 13:30:00,
2013-03-09 08:31:00,37.5,30.3,30.27,ESE,119,3.0,5.0,75,0.00,,,0.00,Wunderground v.1.15,2013-03-09 13:31:00,
2013-03-09 08:34:00,37.7,30.2,30.27,SE,124,5.0,6.0,74,0.00,,,0.00,Wunderground v.1.15,2013-03-09 13:34:00,
2013-03-09 08:36:00,37.8,30.3,30.27,SE,137,5.0,10.0,74,0.00,,,0.00,Wunderground v.1.15,2013-03-09 13:36:00,
2013-03-09 08:39:00,38.0,30.4,30.27,SE,134,3.0,10.0,74,0.00,,,0.00,Wunderground v.1.15,2013-03-09 13:39:00,
2013-03-09 08:41:00,38.1,30.5,30.27,SE,126,5.0,11.0,74,0.00,,,0.00,Wunderground v.1.15,2013-03-09 13:41:00,
2013-03-09 08:44:00,38.3,30.7,30.27,SE,126,4.0,11.0,74,0.00,,,0.00,Wunderground v.1.15,2013-03-09 13:44:00,
2013-03-09 08:46:00,38.4,30.8,30.28,SE,126,1.0,11.0,74,0.00,,,0.00,Wunderground v.1.15,2013-03-09 13:46:00,
2013-03-09 08:49:00,38.6,31.0,30.28,SE,126,3.0,11.0,74,0.00,,,0.00,Wunderground v.1.15,2013-03-09 13:49:00,
2013-03-09 08:51:00,38.7,31.1,30.28,SE,127,4.0,4.0,74,0.00,,,0.00,Wunderground v.1.15,2013-03-09 13:51:00,
2013-03-09 08:52:00,38.8,30.9,30.28,SE,127,3.0,5.0,73,0.00,,,0.00,Wunderground v.1.15,2013-03-09 13:52:00,
2013-03-09 08:54:00,38.9,31.0,30.28,SE,128,4.0,6.0,73,0.00,,,0.00,Wunderground v.1.15,2013-03-09 13:54:00,
2013-03-09 08:56:00,39.0,31.4,30.28,SE,128,3.0,6.0,74,0.00,,,0.00,Wunderground v.1.15,2013-03-09 13:56:00,
2013-03-09 08:57:00,39.1,31.5,30.28,SE,128,5.0,6.0,74,0.00,,,0.00,Wunderground v.1.15,2013-03-09 13:57:00,
2013-03-09 08:59:00,39.2,30.9,30.28,SE,136,7.0,9.0,72,0.00,,,0.00,Wunderground v.1.15,2013-03-09 13:59:00,
2013-03-09 09:00:00,39.2,32.3,30.28,SE,135,5.0,5.0,76,0.00,,,0.00,Wunderground v.1.15,2013-03-09 14:00:00,
2013-03-09 09:01:00,39.3,31.0,30.28,SE,130,4.0,6.0,72,0.00,,,0.00,Wunderground v.1.15,2013-03-09 14:01:00,
2013-03-09 09:02:00,39.3,31.0,30.28,SE,135,3.0,7.0,72,0.00,,,0.00,Wunderground v.1.15,2013-03-09 14:02:00,
2013-03-09 09:04:00,39.5,31.2,30.28,SSE,149,4.0,7.0,72,0.00,,,0.00,Wunderground v.1.15,2013-03-09 14:04:00,
2013-03-09 09:05:00,39.5,31.2,30.28,SSE,148,4.0,7.0,72,0.00,,,0.00,Wunderground v.1.15,2013-03-09 14:05:00,
2013-03-09 09:07:00,39.6,31.3,30.28,SE,141,4.0,8.0,72,0.00,,,0.00,Wunderground v.1.15,2013-03-09 14:07:00,
2013-03-09 09:09:00,39.8,31.2,30.28,SE,140,6.0,13.0,71,0.00,,,0.00,Wunderground v.1.15,2013-03-09 14:09:00,
2013-03-09 09:10:00,39.8,31.2,30.28,SE,135,7.0,9.0,71,0.00,,,0.00,Wunderground v.1.15,2013-03-09 14:10:00,
2013-03-09 09:12:00,39.9,30.9,30.28,SE,132,2.0,10.0,70,0.00,,,0.00,Wunderground v.1.15,2013-03-09 14:12:00,
2013-03-09 09:15:00,40.0,31.4,30.29,SE,132,4.0,10.0,71,0.00,,,0.00,Wunderground v.1.15,2013-03-09 14:15:00,
2013-03-09 09:17:00,40.2,31.2,30.29,SE,139,3.0,10.0,70,0.00,,,0.00,Wunderground v.1.15,2013-03-09 14:17:00,
2013-03-09 09:20:00,40.3,30.9,30.29,SE,133,3.0,5.0,69,0.00,,,0.00,Wunderground v.1.15,2013-03-09 14:20:00,
2013-03-09 09:22:00,40.4,31.4,30.29,SE,142,1.0,10.0,70,0.00,,,0.00,Wunderground v.1.15,2013-03-09 14:22:00,
2013-03-09 09:23:00,40.4,31.4,30.29,SE,142,3.0,10.0,70,0.00,,,0.00,Wunderground v.1.15,2013-03-09 14:23:00,
2013-03-09 09:25:00,40.4,31.4,30.29,SE,134,5.0,10.0,70,0.00,,,0.00,Wunderground v.1.15,2013-03-09 14:25:00,
2013-03-09 09:27:00,40.5,31.5,30.29,SE,135,3.0,10.0,70,0.00,,,0.00,Wunderground v.1.15,2013-03-09 14:27:00,
2013-03-09 09:28:00,40.5,31.5,30.29,SE,135,5.0,10.0,70,0.00,,,0.00,Wunderground v.1.15,2013-03-09 14:28:00,
2013-03-09 09:30:00,40.6,31.6,30.29,SE,130,5.0,7.0,70,0.00,,,0.00,Wunderground v.1.15,2013-03-09 14:30:00,
2013-03-09 09:31:00,40.6,31.6,30.29,SE,134,3.0,7.0,70,0.00,,,0.00,Wunderground v.1.15,2013-03-09 14:31:00,
2013-03-09 09:32:00,40.7,31.7,30.29,SE,136,10.0,13.0,70,0.00,,,0.00,Wunderground v.1.15,2013-03-09 14:32:00,
2013-03-09 09:33:00,40.8,31.4,30.29,SE,142,6.0,13.0,69,0.00,,,0.00,Wunderground v.1.15,2013-03-09 14:33:00,
2013-03-09 09:35:00,41.0,31.6,30.29,SE,136,6.0,13.0,69,0.00,,,0.00,Wunderground v.1.15,2013-03-09 14:35:00,
2013-03-09 09:36:00,41.1,31.7,30.29,SE,135,5.0,13.0,69,0.00,,,0.00,Wunderground v.1.15,2013-03-09 14:36:00,
2013-03-09 09:37:00,41.3,31.9,30.29,SE,140,5.0,13.0,69,0.00,,,0.00,Wunderground v.1.15,2013-03-09 14:37:00,
2013-03-09 09:38:00,41.5,32.1,30.29,SE,142,5.0,13.0,69,0.00,,,0.00,Wunderground v.1.15,2013-03-09 14:38:00,
2013-03-09 09:40:00,42.0,32.2,30.29,SSE,154,6.0,10.0,68,0.00,,,0.00,Wunderground v.1.15,2013-03-09 14:40:00,
2013-03-09 09:41:00,42.1,31.9,30.29,SSE,151,3.0,10.0,67,0.00,,,0.00,Wunderground v.1.15,2013-03-09 14:41:00,
2013-03-09 09:42:00,42.3,32.5,30.29,SSE,150,3.0,10.0,68,0.00,,,0.00,Wunderground v.1.15,2013-03-09 14:42:00,
2013-03-09 09:43:00,42.6,33.1,30.28,SSE,150,4.0,10.0,69,0.00,,,0.00,Wunderground v.1.15,2013-03-09 14:43:00,
2013-03-09 09:45:00,42.9,32.7,30.28,ESE,106,3.0,12.0,67,0.00,,,0.00,Wunderground v.1.15,2013-03-09 14:45:00,
2013-03-09 09:46:00,43.1,32.9,30.28,SE,128,4.0,12.0,67,0.00,,,0.00,Wunderground v.1.15,2013-03-09 14:46:00,
2013-03-09 09:48:00,43.2,32.6,30.28,SE,136,9.0,12.0,66,0.00,,,0.00,Wunderground v.1.15,2013-03-09 14:48:00,
2013-03-09 09:49:00,43.2,32.2,30.28,SE,128,6.0,12.0,65,0.00,,,0.00,Wunderground v.1.15,2013-03-09 14:49:00,
2013-03-09 09:51:00,43.2,32.6,30.28,SE,134,9.0,12.0,66,0.00,,,0.00,Wunderground v.1.15,2013-03-09 14:51:00,
2013-03-09 09:53:00,43.1,32.5,30.28,ESE,117,10.0,12.0,66,0.00,,,0.00,Wunderground v.1.15,2013-03-09 14:53:00,
2013-03-09 09:54:00,43.1,32.5,30.28,ESE,121,6.0,12.0,66,0.00,,,0.00,Wunderground v.1.15,2013-03-09 14:54:00,
2013-03-09 09:56:00,43.1,32.5,30.28,SE,130,2.0,12.0,66,0.00,,,0.00,Wunderground v.1.15,2013-03-09 14:56:00,
2013-03-09 09:57:00,43.2,32.6,30.28,SE,124,4.0,12.0,66,0.00,,,0.00,Wunderground v.1.15,2013-03-09 14:57:00,
2013-03-09 09:58:00,43.3,32.7,30.28,SE,126,3.0,12.0,66,0.00,,,0.00,Wunderground v.1.15,2013-03-09 14:58:00,
2013-03-09 09:59:00,43.4,33.2,30.28,ESE,120,5.0,12.0,67,0.00,,,0.00,Wunderground v.1.15,2013-03-09 14:59:00,
2013-03-09 10:01:00,43.7,32.7,30.28,SE,127,4.0,11.0,65,0.00,,,0.00,Wunderground v.1.15,2013-03-09 15:01:00,
2013-03-09 10:02:00,43.9,33.3,30.28,ESE,123,6.0,11.0,66,0.00,,,0.00,Wunderground v.1.15,2013-03-09 15:02:00,
2013-03-09 10:03:00,44.2,33.6,30.28,ESE,104,11.0,11.0,66,0.00,,,0.00,Wunderground v.1.15,2013-03-09 15:03:00,
2013-03-09 10:04:00,44.3,33.3,30.28,ESE,104,6.0,11.0,65,0.00,,,0.00,Wunderground v.1.15,2013-03-09 15:04:00,
2013-03-09 10:06:00,44.5,33.1,30.27,ESE,115,6.0,11.0,64,0.00,,,0.00,Wunderground v.1.15,2013-03-09 15:06:00,
2013-03-09 10:07:00,44.6,33.2,30.27,SE,130,10.0,13.0,64,0.00,,,0.00,Wunderground v.1.15,2013-03-09 15:07:00,
2013-03-09 10:08:00,44.9,33.8,30.27,ESE,113,9.0,14.0,65,0.00,,,0.00,Wunderground v.1.15,2013-03-09 15:08:00,
2013-03-09 10:09:00,45.0,33.5,30.27,ESE,117,5.0,14.0,64,0.00,,,0.00,Wunderground v.1.15,2013-03-09 15:09:00,
2013-03-09 10:11:00,45.1,33.6,30.27,SE,135,5.0,9.0,64,0.00,,,0.00,Wunderground v.1.15,2013-03-09 15:11:00,
2013-03-09 10:12:00,45.2,32.9,30.27,ESE,115,11.0,13.0,62,0.00,,,0.00,Wunderground v.1.15,2013-03-09 15:12:00,
2013-03-09 10:13:00,45.2,32.9,30.27,ESE,109,6.0,13.0,62,0.00,,,0.00,Wunderground v.1.15,2013-03-09 15:13:00,
2013-03-09 10:14:00,45.3,33.4,30.27,SE,135,11.0,13.0,63,0.00,,,0.00,Wunderground v.1.15,2013-03-09 15:14:00,
2013-03-09 10:16:00,45.4,33.1,30.27,SE,135,7.0,13.0,62,0.00,,,0.00,Wunderground v.1.15,2013-03-09 15:16:00,
2013-03-09 10:17:00,45.4,33.5,30.27,SE,136,2.0,13.0,63,0.00,,,0.00,Wunderground v.1.15,2013-03-09 15:17:00,
2013-03-09 10:19:00,45.6,33.7,30.27,ESE,114,2.0,13.0,63,0.00,,,0.00,Wunderground v.1.15,2013-03-09 15:19:00,
2013-03-09 10:21:00,46.0,34.5,30.27,SE,140,7.0,10.0,64,0.00,,,0.00,Wunderground v.1.15,2013-03-09 15:21:00,
2013-03-09 10:22:00,46.1,33.8,30.27,SE,130,7.0,10.0,62,0.00,,,0.00,Wunderground v.1.15,2013-03-09 15:22:00,
2013-03-09 10:24:00,46.4,33.7,30.27,SE,139,4.0,10.0,61,0.00,,,0.00,Wunderground v.1.15,2013-03-09 15:24:00,
2013-03-09 10:26:00,46.6,33.9,30.27,SE,124,5.0,12.0,61,0.00,,,0.00,Wunderground v.1.15,2013-03-09 15:26:00,
2013-03-09 10:27:00,46.7,34.0,30.27,SE,124,1.0,12.0,61,0.00,,,0.00,Wunderground v.1.15,2013-03-09 15:27:00,
2013-03-09 10:29:00,46.8,33.6,30.27,ESE,112,11.0,12.0,60,0.00,,,0.00,Wunderground v.1.15,2013-03-09 15:29:00,
2013-03-09 10:30:00,46.8,33.2,30.27,ESE,117,7.0,7.0,59,0.00,,,0.00,Wunderground v.1.15,2013-03-09 15:30:00,
2013-03-09 10:31:00,46.9,34.1,30.27,ESE,119,3.0,7.0,61,0.00,,,0.00,Wunderground v.1.15,2013-03-09 15:31:00,
2013-03-09 10:32:00,47.0,34.6,30.27,SE,133,8.0,11.0,62,0.00,,,0.00,Wunderground v.1.15,2013-03-09 15:32:00,
2013-03-09 10:34:00,47.2,34.0,30.27,ESE,121,3.0,11.0,60,0.00,,,0.00,Wunderground v.1.15,2013-03-09 15:34:00,
2013-03-09 10:35:00,47.2,34.0,30.27,ESE,123,4.0,11.0,60,0.00,,,0.00,Wunderground v.1.15,2013-03-09 15:35:00,
2013-03-09 10:36:00,47.4,34.2,30.27,SE,134,5.0,11.0,60,0.00,,,0.00,Wunderground v.1.15,2013-03-09 15:36:00,
2013-03-09 10:38:00,47.7,34.5,30.27,South,177,10.0,11.0,60,0.00,,,0.00,Wunderground v.1.15,2013-03-09 15:38:00,
2013-03-09 10:40:00,48.0,34.3,30.27,SSE,154,9.0,9.0,59,0.00,,,0.00,Wunderground v.1.15,2013-03-09 15:40:00,
2013-03-09 10:42:00,48.4,34.3,30.27,SSE,155,3.0,11.0,58,0.00,,,0.00,Wunderground v.1.15,2013-03-09 15:42:00,
2013-03-09 10:43:00,48.5,34.4,30.27,SE,142,8.0,11.0,58,0.00,,,0.00,Wunderground v.1.15,2013-03-09 15:43:00,
2013-03-09 10:45:00,48.7,34.6,30.26,SE,139,5.0,12.0,58,0.00,,,0.00,Wunderground v.1.15,2013-03-09 15:45:00,
2013-03-09 10:47:00,48.9,34.3,30.26,ESE,119,4.0,12.0,57,0.00,,,0.00,Wunderground v.1.15,2013-03-09 15:47:00,
2013-03-09 10:48:00,49.0,34.4,30.25,ESE,114,5.0,13.0,57,0.00,,,0.00,Wunderground v.1.15,2013-03-09 15:48:00,
2013-03-09 10:50:00,49.1,34.5,30.26,SE,134,7.0,11.0,57,0.00,,,0.00,Wunderground v.1.15,2013-03-09 15:50:00,
2013-03-09 10:52:00,49.2,34.6,30.26,SE,129,6.0,11.0,57,0.00,,,0.00,Wunderground v.1.15,2013-03-09 15:52:00,
2013-03-09 10:53:00,49.2,34.6,30.26,SE,127,10.0,11.0,57,0.00,,,0.00,Wunderground v.1.15,2013-03-09 15:53:00,
2013-03-09 10:55:00,49.5,35.3,30.26,SE,136,12.0,13.0,58,0.00,,,0.00,Wunderground v.1.15,2013-03-09 15:55:00,
2013-03-09 10:57:00,49.7,35.1,30.26,SE,135,5.0,13.0,57,0.00,,,0.00,Wunderground v.1.15,2013-03-09 15:57:00,
2013-03-09 10:58:00,49.7,34.6,30.26,SE,135,3.0,13.0,56,0.00,,,0.00,Wunderground v.1.15,2013-03-09 15:58:00,
2013-03-09 11:00:00,50.1,34.5,30.26,SE,134,3.0,8.0,55,0.00,,,0.00,Wunderground v.1.15,2013-03-09 16:00:00,
2013-03-09 11:01:00,50.1,34.5,30.26,SE,133,4.0,8.0,55,0.00,,,0.00,Wunderground v.1.15,2013-03-09 16:01:00,
2013-03-09 11:02:00,50.3,35.6,30.26,SE,134,3.0,8.0,57,0.00,,,0.00,Wunderground v.1.15,2013-03-09 16:02:00,
2013-03-09 11:03:00,50.4,35.7,30.26,SE,134,6.0,8.0,57,0.00,,,0.00,Wunderground v.1.15,2013-03-09 16:03:00,
2013-03-09 11:05:00,50.6,35.5,30.25,SE,141,9.0,10.0,56,0.00,,,0.00,Wunderground v.1.15,2013-03-09 16:05:00,
2013-03-09 11:06:00,50.7,35.1,30.25,SSE,149,11.0,11.0,55,0.00,,,0.00,Wunderground v.1.15,2013-03-09 16:06:00,
2013-03-09 11:08:00,50.8,34.7,30.25,SE,132,8.0,12.0,54,0.00,,,0.00,Wunderground v.1.15,2013-03-09 16:08:00,
2013-03-09 11:11:00,50.8,34.3,30.25,South,174,6.0,12.0,53,0.00,,,0.00,Wunderground v.1.15,2013-03-09 16:11:00,
2013-03-09 11:13:00,50.9,34.8,30.24,ESE,119,7.0,12.0,54,0.00,,,0.00,Wunderground v.1.15,2013-03-09 16:13:00,
2013-03-09 11:16:00,51.2,35.1,30.24,SSE,151,5.0,12.0,54,0.00,,,0.00,Wunderground v.1.15,2013-03-09 16:16:00,
2013-03-09 11:18:00,51.3,35.7,30.25,SE,138,5.0,12.0,55,0.00,,,0.00,Wunderground v.1.15,2013-03-09 16:18:00,
2013-03-09 11:21:00,51.5,34.9,30.25,SE,136,10.0,11.0,53,0.00,,,0.00,Wunderground v.1.15,2013-03-09 16:21:00,
2013-03-09 11:23:00,51.4,35.3,30.25,SSE,147,4.0,11.0,54,0.00,,,0.00,Wunderground v.1.15,2013-03-09 16:23:00,
2013-03-09 11:26:00,51.6,35.5,30.25,SE,144,5.0,11.0,54,0.00,,,0.00,Wunderground v.1.15,2013-03-09 16:26:00,
2013-03-09 11:28:00,51.8,35.7,30.24,ESE,118,4.0,12.0,54,0.00,,,0.00,Wunderground v.1.15,2013-03-09 16:28:00,
2013-03-09 11:31:00,52.0,35.4,30.24,ESE,115,3.0,14.0,53,0.00,,,0.00,Wunderground v.1.15,2013-03-09 16:31:00,
2013-03-09 11:33:00,52.0,35.4,30.24,SE,134,7.0,14.0,53,0.00,,,0.00,Wunderground v.1.15,2013-03-09 16:33:00,
2013-03-09 11:36:00,52.1,35.5,30.24,SE,126,10.0,14.0,53,0.00,,,0.00,Wunderground v.1.15,2013-03-09 16:36:00,
2013-03-09 11:37:00,52.1,35.5,30.24,SE,126,7.0,14.0,53,0.00,,,0.00,Wunderground v.1.15,2013-03-09 16:37:00,
2013-03-09 11:39:00,52.1,35.5,30.24,SE,138,9.0,14.0,53,0.00,,,0.00,Wunderground v.1.15,2013-03-09 16:39:00,
2013-03-09 11:42:00,52.3,35.7,30.24,SSE,149,7.0,7.0,53,0.00,,,0.00,Wunderground v.1.15,2013-03-09 16:42:00,
2013-03-09 11:44:00,52.6,36.4,30.24,SSE,149,3.0,7.0,54,0.00,,,0.00,Wunderground v.1.15,2013-03-09 16:44:00,
2013-03-09 11:47:00,53.0,35.8,30.24,SE,144,1.0,12.0,52,0.00,,,0.00,Wunderground v.1.15,2013-03-09 16:47:00,
2013-03-09 11:49:00,53.2,36.0,30.24,SE,132,4.0,12.0,52,0.00,,,0.00,Wunderground v.1.15,2013-03-09 16:49:00,
2013-03-09 11:50:00,53.4,36.2,30.24,SE,127,3.0,7.0,52,0.00,,,0.00,Wunderground v.1.15,2013-03-09 16:50:00,
2013-03-09 11:53:00,53.6,36.4,30.24,SE,129,5.0,7.0,52,0.00,,,0.00,Wunderground v.1.15,2013-03-09 16:53:00,
2013-03-09 11:54:00,53.7,36.5,30.24,SE,134,3.0,7.0,52,0.00,,,0.00,Wunderground v.1.15,2013-03-09 16:54:00,
2013-03-09 11:55:00,53.8,37.1,30.24,SE,134,4.0,7.0,53,0.00,,,0.00,Wunderground v.1.15,2013-03-09 16:55:00,
2013-03-09 11:58:00,54.1,36.4,30.24,SE,138,4.0,7.0,51,0.00,,,0.00,Wunderground v.1.15,2013-03-09 16:58:00,
2013-03-09 11:59:00,54.4,36.6,30.24,SE,139,6.0,7.0,51,0.00,,,0.00,Wunderground v.1.15,2013-03-09 16:59:00,
2013-03-09 12:00:00,54.5,35.7,30.24,SSE,151,7.0,7.0,49,0.00,,,0.00,Wunderground v.1.15,2013-03-09 17:00:00,
2013-03-09 12:03:00,55.1,36.3,30.24,SSE,161,9.0,10.0,49,0.00,,,0.00,Wunderground v.1.15,2013-03-09 17:03:00,
2013-03-09 12:04:00,55.2,36.4,30.24,SSE,158,6.0,10.0,49,0.00,,,0.00,Wunderground v.1.15,2013-03-09 17:04:00,
2013-03-09 12:06:00,55.3,35.9,30.24,SSE,157,3.0,10.0,48,0.00,,,0.00,Wunderground v.1.15,2013-03-09 17:06:00,
2013-03-09 12:08:00,55.4,35.5,30.24,SSE,157,2.0,10.0,47,0.00,,,0.00,Wunderground v.1.15,2013-03-09 17:08:00,
2013-03-09 12:09:00,55.3,36.5,30.24,SSE,157,2.0,4.0,49,0.00,,,0.00,Wunderground v.1.15,2013-03-09 17:09:00,
2013-03-09 12:11:00,55.4,36.0,30.24,SSE,167,10.0,12.0,48,0.00,,,0.00,Wunderground v.1.15,2013-03-09 17:11:00,
2013-03-09 12:13:00,55.4,36.0,30.24,South,176,6.0,12.0,48,0.00,,,0.00,Wunderground v.1.15,2013-03-09 17:13:00,
2013-03-09 12:15:00,55.5,35.6,30.23,SSW,195,3.0,12.0,47,0.00,,,0.00,Wunderground v.1.15,2013-03-09 17:15:00,
2013-03-09 12:16:00,55.5,36.1,30.24,South,188,4.0,12.0,48,0.00,,,0.00,Wunderground v.1.15,2013-03-09 17:16:00,
2013-03-09 12:18:00,55.7,36.8,30.24,South,183,0.0,12.0,49,0.00,,,0.00,Wunderground v.1.15,2013-03-09 17:18:00,
2013-03-09 12:20:00,56.0,36.6,30.23,SE,134,7.0,10.0,48,0.00,,,0.00,Wunderground v.1.15,2013-03-09 17:20:00,
2013-03-09 12:21:00,56.0,36.0,30.23,SE,132,6.0,10.0,47,0.00,,,0.00,Wunderground v.1.15,2013-03-09 17:21:00,
2013-03-09 12:24:00,56.2,35.7,30.23,SSE,165,5.0,10.0,46,0.00,,,0.00,Wunderground v.1.15,2013-03-09 17:24:00,
2013-03-09 12:26:00,56.5,36.5,30.23,SSW,209,5.0,10.0,47,0.00,,,0.00,Wunderground v.1.15,2013-03-09 17:26:00,
2013-03-09 12:29:00,56.8,36.2,30.23,SSW,209,3.0,10.0,46,0.00,,,0.00,Wunderground v.1.15,2013-03-09 17:29:00,
2013-03-09 12:31:00,57.1,35.4,30.23,SSE,159,4.0,10.0,44,0.00,,,0.00,Wunderground v.1.15,2013-03-09 17:31:00,
2013-03-09 12:34:00,57.3,35.6,30.23,South,178,4.0,10.0,44,0.00,,,0.00,Wunderground v.1.15,2013-03-09 17:34:00,
2013-03-09 12:36:00,57.5,37.4,30.23,SSW,209,6.0,10.0,47,0.00,,,0.00,Wunderground v.1.15,2013-03-09 17:36:00,
2013-03-09 12:37:00,57.6,37.5,30.23,SSW,209,4.0,10.0,47,0.00,,,0.00,Wunderground v.1.15,2013-03-09 17:37:00,
2013-03-09 12:39:00,57.9,36.7,30.22,SSW,200,3.0,10.0,45,0.00,,,0.00,Wunderground v.1.15,2013-03-09 17:39:00,
2013-03-09 12:41:00,58.2,35.8,30.22,SSW,195,2.0,7.0,43,0.00,,,0.00,Wunderground v.1.15,2013-03-09 17:41:00,
2013-03-09 12:42:00,58.2,35.8,30.22,SSW,195,3.0,7.0,43,0.00,,,0.00,Wunderground v.1.15,2013-03-09 17:42:00,
2013-03-09 12:44:00,58.3,36.5,30.22,South,190,4.0,7.0,44,0.00,,,0.00,Wunderground v.1.15,2013-03-09 17:44:00,
2013-03-09 12:46:00,58.5,37.2,30.22,South,181,4.0,7.0,45,0.00,,,0.00,Wunderground v.1.15,2013-03-09 17:46:00,
2013-03-09 12:47:00,58.5,37.2,30.22,South,181,1.0,7.0,45,0.00,,,0.00,Wunderground v.1.15,2013-03-09 17:47:00,
2013-03-09 12:49:00,58.6,36.7,30.22,South,182,7.0,7.0,44,0.00,,,0.00,Wunderground v.1.15,2013-03-09 17:49:00,
2013-03-09 12:51:00,58.5,36.1,30.22,SE,142,6.0,7.0,43,0.00,,,0.00,Wunderground v.1.15,2013-03-09 17:51:00,
2013-03-09 12:52:00,58.5,36.1,30.22,SE,139,2.0,7.0,43,0.00,,,0.00,Wunderground v.1.15,2013-03-09 17:52:00,
2013-03-09 12:54:00,58.5,36.6,30.22,SSE,165,6.0,9.0,44,0.00,,,0.00,Wunderground v.1.15,2013-03-09 17:54:00,
2013-03-09 12:56:00,58.6,37.9,30.22,South,176,5.0,9.0,46,0.00,,,0.00,Wunderground v.1.15,2013-03-09 17:56:00,
2013-03-09 12:57:00,58.7,36.2,30.22,SSE,167,6.0,10.0,43,0.00,,,0.00,Wunderground v.1.15,2013-03-09 17:57:00,
2013-03-09 12:59:00,58.6,36.2,30.22,South,185,4.0,10.0,43,0.00,,,0.00,Wunderground v.1.15,2013-03-09 17:59:00,
2013-03-09 13:01:00,58.7,36.2,30.21,SSW,195,1.0,6.0,43,0.00,,,0.00,Wunderground v.1.15,2013-03-09 18:01:00,
2013-03-09 13:02:00,58.8,36.3,30.21,SSW,195,4.0,6.0,43,0.00,,,0.00,Wunderground v.1.15,2013-03-09 18:02:00,
2013-03-09 13:04:00,59.0,37.1,30.21,South,190,1.0,7.0,44,0.00,,,0.00,Wunderground v.1.15,2013-03-09 18:04:00,
2013-03-09 13:05:00,59.0,37.1,30.21,South,178,7.0,7.0,44,0.00,,,0.00,Wunderground v.1.15,2013-03-09 18:05:00,
2013-03-09 13:06:00,59.0,35.9,30.21,South,182,6.0,13.0,42,0.00,,,0.00,Wunderground v.1.15,2013-03-09 18:06:00,
2013-03-09 13:07:00,59.0,36.5,30.21,South,190,1.0,13.0,43,0.00,,,0.00,Wunderground v.1.15,2013-03-09 18:07:00,
2013-03-09 13:09:00,59.3,36.8,30.21,South,190,4.0,13.0,43,0.00,,,0.00,Wunderground v.1.15,2013-03-09 18:09:00,
2013-03-09 13:10:00,59.5,37.6,30.21,SSW,200,4.0,4.0,44,0.00,,,0.00,Wunderground v.1.15,2013-03-09 18:10:00,
2013-03-09 13:12:00,59.5,35.8,30.21,SW,227,3.0,6.0,41,0.00,,,0.00,Wunderground v.1.15,2013-03-09 18:12:00,
2013-03-09 13:13:00,59.4,36.3,30.20,WSW,246,1.0,6.0,42,0.00,,,0.00,Wunderground v.1.15,2013-03-09 18:13:00,
2013-03-09 13:14:00,59.4,37.5,30.20,SW,235,5.0,6.0,44,0.00,,,0.00,Wunderground v.1.15,2013-03-09 18:14:00,
2013-03-09 13:15:00,59.4,36.9,30.20,SSW,213,9.0,9.0,43,0.00,,,0.00,Wunderground v.1.15,2013-03-09 18:15:00,
2013-03-09 13:17:00,59.5,37.0,30.20,SSW,209,5.0,9.0,43,0.00,,,0.00,Wunderground v.1.15,2013-03-09 18:17:00,
2013-03-09 13:18:00,59.6,37.1,30.20,SSE,163,5.0,9.0,43,0.00,,,0.00,Wunderground v.1.15,2013-03-09 18:18:00,
2013-03-09 13:19:00,59.6,37.6,30.20,SSE,164,6.0,9.0,44,0.00,,,0.00,Wunderground v.1.15,2013-03-09 18:19:00,
2013-03-09 13:20:00,59.7,36.6,30.20,South,170,10.0,11.0,42,0.00,,,0.00,Wunderground v.1.15,2013-03-09 18:20:00,
2013-03-09 13:22:00,59.5,35.1,30.20,South,178,5.0,11.0,40,0.00,,,0.00,Wunderground v.1.15,2013-03-09 18:22:00,
2013-03-09 13:23:00,59.4,36.9,30.20,South,178,3.0,11.0,43,0.00,,,0.00,Wunderground v.1.15,2013-03-09 18:23:00,
2013-03-09 13:24:00,59.5,37.0,30.20,SSE,159,4.0,11.0,43,0.00,,,0.00,Wunderground v.1.15,2013-03-09 18:24:00,
2013-03-09 13:25:00,59.5,37.0,30.20,South,182,10.0,11.0,43,0.00,,,0.00,Wunderground v.1.15,2013-03-09 18:25:00,
2013-03-09 13:27:00,59.4,35.7,30.20,South,191,6.0,14.0,41,0.00,,,0.00,Wunderground v.1.15,2013-03-09 18:27:00,
2013-03-09 13:28:00,59.3,36.2,30.20,SW,214,6.0,14.0,42,0.00,,,0.00,Wunderground v.1.15,2013-03-09 18:28:00,
2013-03-09 13:29:00,59.3,35.6,30.20,SW,234,7.0,14.0,41,0.00,,,0.00,Wunderground v.1.15,2013-03-09 18:29:00,
2013-03-09 13:30:00,59.0,35.3,30.20,SW,236,3.0,7.0,41,0.00,,,0.00,Wunderground v.1.15,2013-03-09 18:30:00,
2013-03-09 13:32:00,59.0,36.5,30.20,SSW,210,4.0,7.0,43,0.00,,,0.00,Wunderground v.1.15,2013-03-09 18:32:00,
2013-03-09 13:33:00,59.0,36.5,30.20,SSW,200,5.0,7.0,43,0.00,,,0.00,Wunderground v.1.15,2013-03-09 18:33:00,
2013-03-09 13:35:00,58.9,35.8,30.20,SSE,166,4.0,10.0,42,0.00,,,0.00,Wunderground v.1.15,2013-03-09 18:35:00,
2013-03-09 13:36:00,58.7,35.7,30.20,South,173,6.0,10.0,42,0.00,,,0.00,Wunderground v.1.15,2013-03-09 18:36:00,
2013-03-09 13:37:00,58.5,35.5,30.19,South,180,2.0,10.0,42,0.00,,,0.00,Wunderground v.1.15,2013-03-09 18:37:00,
2013-03-09 13:38:00,58.4,36.6,30.19,South,180,1.0,10.0,44,0.00,,,0.00,Wunderground v.1.15,2013-03-09 18:38:00,
2013-03-09 13:40:00,58.4,36.6,30.19,SSW,200,4.0,8.0,44,0.00,,,0.00,Wunderground v.1.15,2013-03-09 18:40:00,
2013-03-09 13:41:00,58.4,36.6,30.19,South,186,5.0,8.0,44,0.00,,,0.00,Wunderground v.1.15,2013-03-09 18:41:00,
2013-03-09 13:42:00,58.4,37.7,30.19,South,169,6.0,9.0,46,0.00,,,0.00,Wunderground v.1.15,2013-03-09 18:42:00,
2013-03-09 13:44:00,58.3,37.0,30.18,SSE,158,6.0,9.0,45,0.00,,,0.00,Wunderground v.1.15,2013-03-09 18:44:00,
2013-03-09 13:45:00,58.3,35.9,30.18,SSE,162,4.0,9.0,43,0.00,,,0.00,Wunderground v.1.15,2013-03-09 18:45:00,
2013-03-09 13:46:00,58.3,35.9,30.18,SSE,162,4.0,9.0,43,0.00,,,0.00,Wunderground v.1.15,2013-03-09 18:46:00,
2013-03-09 13:48:00,58.2,36.4,30.18,SSE,161,2.0,9.0,44,0.00,,,0.00,Wunderground v.1.15,2013-03-09 18:48:00,
2013-03-09 13:49:00,58.3,37.6,30.18,SSE,161,1.0,9.0,46,0.00,,,0.00,Wunderground v.1.15,2013-03-09 18:49:00,
2013-03-09 13:50:00,58.5,36.6,30.18,SSE,161,2.0,4.0,44,0.00,,,0.00,Wunderground v.1.15,2013-03-09 18:50:00,
2013-03-09 13:51:00,58.5,37.2,30.18,SSE,159,7.0,8.0,45,0.00,,,0.00,Wunderground v.1.15,2013-03-09 18:51:00,
2013-03-09 13:53:00,58.5,36.1,30.18,SSE,161,2.0,12.0,43,0.00,,,0.00,Wunderground v.1.15,2013-03-09 18:53:00,
2013-03-09 13:54:00,58.5,37.2,30.17,SSE,160,3.0,12.0,45,0.00,,,0.00,Wunderground v.1.15,2013-03-09 18:54:00,
2013-03-09 13:55:00,58.4,36.6,30.18,SSW,195,5.0,12.0,44,0.00,,,0.00,Wunderground v.1.15,2013-03-09 18:55:00,
2013-03-09 13:57:00,58.5,36.1,30.18,SSW,205,3.0,12.0,43,0.00,,,0.00,Wunderground v.1.15,2013-03-09 18:57:00,
2013-03-09 13:58:00,58.4,36.0,30.17,SW,226,4.0,12.0,43,0.00,,,0.00,Wunderground v.1.15,2013-03-09 18:58:00,
2013-03-09 13:59:00,58.3,35.9,30.18,SW,227,3.0,12.0,43,0.00,,,0.00,Wunderground v.1.15,2013-03-09 18:59:00,
2013-03-09 14:01:00,58.2,35.8,30.17,SW,227,5.0,5.0,43,0.00,,,0.00,Wunderground v.1.15,2013-03-09 19:01:00,
2013-03-09 14:02:00,58.2,35.8,30.17,SW,226,3.0,5.0,43,0.00,,,0.00,Wunderground v.1.15,2013-03-09 19:02:00,
2013-03-09 14:03:00,58.1,36.9,30.17,SW,226,5.0,5.0,45,0.00,,,0.00,Wunderground v.1.15,2013-03-09 19:03:00,
2013-03-09 14:04:00,58.1,36.3,30.17,SW,219,4.0,5.0,44,0.00,,,0.00,Wunderground v.1.15,2013-03-09 19:04:00,
2013-03-09 14:06:00,58.2,35.8,30.17,SW,223,3.0,6.0,43,0.00,,,0.00,Wunderground v.1.15,2013-03-09 19:06:00,
2013-03-09 14:07:00,58.3,36.5,30.17,SW,224,4.0,6.0,44,0.00,,,0.00,Wunderground v.1.15,2013-03-09 19:07:00,
2013-03-09 14:08:00,58.5,36.6,30.17,SW,232,4.0,8.0,44,0.00,,,0.00,Wunderground v.1.15,2013-03-09 19:08:00,
2013-03-09 14:09:00,58.6,36.7,30.17,SW,224,4.0,4.0,44,0.00,,,0.00,Wunderground v.1.15,2013-03-09 19:09:00,
2013-03-09 14:11:00,58.7,36.8,30.17,SW,221,5.0,5.0,44,0.00,,,0.00,Wunderground v.1.15,2013-03-09 19:11:00,
2013-03-09 14:12:00,58.9,36.4,30.17,SSW,195,5.0,9.0,43,0.00,,,0.00,Wunderground v.1.15,2013-03-09 19:12:00,
2013-03-09 14:14:00,59.0,36.5,30.17,SSW,195,5.0,11.0,43,0.00,,,0.00,Wunderground v.1.15,2013-03-09 19:14:00,
2013-03-09 14:16:00,59.0,35.9,30.17,SSW,195,6.0,11.0,42,0.00,,,0.00,Wunderground v.1.15,2013-03-09 19:16:00,
2013-03-09 14:17:00,59.0,35.9,30.16,SSW,195,5.0,11.0,42,0.00,,,0.00,Wunderground v.1.15,2013-03-09 19:17:00,
2013-03-09 14:19:00,59.0,36.5,30.16,South,183,7.0,11.0,43,0.00,,,0.00,Wunderground v.1.15,2013-03-09 19:19:00,
2013-03-09 14:20:00,59.0,35.9,30.16,South,174,5.0,7.0,42,0.00,,,0.00,Wunderground v.1.15,2013-03-09 19:20:00,
2013-03-09 14:21:00,59.0,35.9,30.16,South,176,5.0,10.0,42,0.00,,,0.00,Wunderground v.1.15,2013-03-09 19:21:00,
2013-03-09 14:22:00,59.0,35.9,30.16,South,190,5.0,10.0,42,0.00,,,0.00,Wunderground v.1.15,2013-03-09 19:22:00,
2013-03-09 14:24:00,59.0,35.3,30.16,South,190,0.0,10.0,41,0.00,,,0.00,Wunderground v.1.15,2013-03-09 19:24:00,
2013-03-09 14:25:00,59.0,35.3,30.16,South,190,0.0,10.0,41,0.00,,,0.00,Wunderground v.1.15,2013-03-09 19:25:00,
2013-03-09 14:26:00,59.0,35.3,30.16,South,189,3.0,10.0,41,0.00,,,0.00,Wunderground v.1.15,2013-03-09 19:26:00,
2013-03-09 14:27:00,59.0,35.9,30.16,SSW,195,4.0,10.0,42,0.00,,,0.00,Wunderground v.1.15,2013-03-09 19:27:00,
2013-03-09 14:29:00,59.0,35.3,30.16,SW,228,4.0,4.0,41,0.00,,,0.00,Wunderground v.1.15,2013-03-09 19:29:00,
2013-03-09 14:30:00,59.0,35.3,30.16,SW,228,3.0,4.0,41,0.00,,,0.00,Wunderground v.1.15,2013-03-09 19:30:00,
2013-03-09 14:31:00,59.0,35.3,30.16,SSW,213,5.0,7.0,41,0.00,,,0.00,Wunderground v.1.15,2013-03-09 19:31:00,
2013-03-09 14:33:00,59.0,35.9,30.16,SSW,210,3.0,7.0,42,0.00,,,0.00,Wunderground v.1.15,2013-03-09 19:33:00,
2013-03-09 14:34:00,59.0,35.9,30.16,South,190,2.0,9.0,42,0.00,,,0.00,Wunderground v.1.15,2013-03-09 19:34:00,
2013-03-09 14:35:00,59.0,35.9,30.16,South,191,2.0,9.0,42,0.00,,,0.00,Wunderground v.1.15,2013-03-09 19:35:00,
2013-03-09 14:37:00,59.0,36.5,30.16,SSW,200,3.0,10.0,43,0.00,,,0.00,Wunderground v.1.15,2013-03-09 19:37:00,
2013-03-09 14:38:00,59.0,36.5,30.16,SSW,200,3.0,10.0,43,0.00,,,0.00,Wunderground v.1.15,2013-03-09 19:38:00,
2013-03-09 14:40:00,59.0,36.5,30.16,SSW,200,4.0,4.0,43,0.00,,,0.00,Wunderground v.1.15,2013-03-09 19:40:00,
2013-03-09 14:42:00,59.0,37.1,30.16,SW,218,6.0,7.0,44,0.00,,,0.00,Wunderground v.1.15,2013-03-09 19:42:00,
2013-03-09 14:43:00,59.0,35.9,30.16,SW,218,5.0,7.0,42,0.00,,,0.00,Wunderground v.1.15,2013-03-09 19:43:00,
2013-03-09 14:45:00,59.0,35.9,30.16,SW,228,9.0,9.0,42,0.00,,,0.00,Wunderground v.1.15,2013-03-09 19:45:00,
2013-03-09 14:48:00,59.0,36.5,30.16,SW,224,4.0,9.0,43,0.00,,,0.00,Wunderground v.1.15,2013-03-09 19:48:00,
2013-03-09 14:50:00,59.0,36.5,30.15,SW,221,2.0,4.0,43,0.00,,,0.00,Wunderground v.1.15,2013-03-09 19:50:00,
2013-03-09 14:51:00,59.0,36.5,30.15,South,178,7.0,9.0,43,0.00,,,0.00,Wunderground v.1.15,2013-03-09 19:51:00,
2013-03-09 14:53:00,59.0,37.7,30.15,SSE,157,4.0,10.0,45,0.00,,,0.00,Wunderground v.1.15,2013-03-09 19:53:00,
2013-03-09 14:55:00,59.0,37.7,30.15,South,169,3.0,10.0,45,0.00,,,0.00,Wunderground v.1.15,2013-03-09 19:55:00,
2013-03-09 14:56:00,59.0,37.7,30.15,South,169,1.0,10.0,45,0.00,,,0.00,Wunderground v.1.15,2013-03-09 19:56:00,
2013-03-09 14:58:00,59.0,37.1,30.15,South,176,7.0,10.0,44,0.00,,,0.00,Wunderground v.1.15,2013-03-09 19:58:00,
2013-03-09 15:00:00,59.1,36.6,30.15,SSE,161,4.0,7.0,43,0.00,,,0.00,Wunderground v.1.15,2013-03-09 20:00:00,
2013-03-09 15:01:00,59.1,36.6,30.15,South,170,3.0,7.0,43,0.00,,,0.00,Wunderground v.1.15,2013-03-09 20:01:00,
2013-03-09 15:03:00,59.0,35.9,30.15,South,170,5.0,10.0,42,0.00,,,0.00,Wunderground v.1.15,2013-03-09 20:03:00,
2013-03-09 15:05:00,59.0,36.5,30.14,South,177,4.0,12.0,43,0.00,,,0.00,Wunderground v.1.15,2013-03-09 20:05:00,
2013-03-09 15:06:00,59.0,37.1,30.14,South,177,2.0,12.0,44,0.00,,,0.00,Wunderground v.1.15,2013-03-09 20:06:00,
2013-03-09 15:08:00,59.0,36.5,30.14,South,176,2.0,12.0,43,0.00,,,0.00,Wunderground v.1.15,2013-03-09 20:08:00,
2013-03-09 15:10:00,58.8,36.9,30.14,SSW,200,10.0,10.0,44,0.00,,,0.00,Wunderground v.1.15,2013-03-09 20:10:00,
2013-03-09 15:12:00,58.6,36.2,30.14,SSW,205,4.0,12.0,43,0.00,,,0.00,Wunderground v.1.15,2013-03-09 20:12:00,
2013-03-09 15:13:00,58.5,36.6,30.14,SSW,209,6.0,12.0,44,0.00,,,0.00,Wunderground v.1.15,2013-03-09 20:13:00,
2013-03-09 15:14:00,58.5,36.6,30.14,SSW,209,4.0,12.0,44,0.00,,,0.00,Wunderground v.1.15,2013-03-09 20:14:00,
2013-03-09 15:15:00,58.4,37.1,30.14,SSW,209,0.0,12.0,45,0.00,,,0.00,Wunderground v.1.15,2013-03-09 20:15:00,
2013-03-09 15:17:00,58.4,36.6,30.14,SSW,209,3.0,12.0,44,0.00,,,0.00,Wunderground v.1.15,2013-03-09 20:17:00,
2013-03-09 15:19:00,58.3,36.5,30.14,South,171,10.0,12.0,44,0.00,,,0.00,Wunderground v.1.15,2013-03-09 20:19:00,
2013-03-09 15:21:00,58.2,36.4,30.14,SSE,167,5.0,6.0,44,0.00,,,0.00,Wunderground v.1.15,2013-03-09 20:21:00,
2013-03-09 15:22:00,58.2,36.4,30.14,SSW,205,7.0,9.0,44,0.00,,,0.00,Wunderground v.1.15,2013-03-09 20:22:00,
2013-03-09 15:24:00,58.1,36.3,30.14,South,182,5.0,10.0,44,0.00,,,0.00,Wunderground v.1.15,2013-03-09 20:24:00,
2013-03-09 15:26:00,58.0,36.2,30.14,SSW,200,4.0,10.0,44,0.00,,,0.00,Wunderground v.1.15,2013-03-09 20:26:00,
2013-03-09 15:27:00,58.0,36.8,30.14,SSW,195,5.0,10.0,45,0.00,,,0.00,Wunderground v.1.15,2013-03-09 20:27:00,
2013-03-09 15:29:00,57.9,36.7,30.14,South,176,9.0,12.0,45,0.00,,,0.00,Wunderground v.1.15,2013-03-09 20:29:00,
2013-03-09 15:31:00,57.8,36.6,30.14,South,187,5.0,6.0,45,0.00,,,0.00,Wunderground v.1.15,2013-03-09 20:31:00,
2013-03-09 15:32:00,57.8,36.6,30.14,South,187,4.0,6.0,45,0.00,,,0.00,Wunderground v.1.15,2013-03-09 20:32:00,
2013-03-09 15:34:00,57.8,37.1,30.14,SSE,165,8.0,10.0,46,0.00,,,0.00,Wunderground v.1.15,2013-03-09 20:34:00,
2013-03-09 15:36:00,57.8,37.1,30.14,SSE,165,6.0,10.0,46,0.00,,,0.00,Wunderground v.1.15,2013-03-09 20:36:00,
2013-03-09 15:37:00,57.7,37.0,30.14,SSE,165,6.0,10.0,46,0.00,,,0.00,Wunderground v.1.15,2013-03-09 20:37:00,
2013-03-09 15:39:00,57.7,37.6,30.14,SSE,165,5.0,10.0,47,0.00,,,0.00,Wunderground v.1.15,2013-03-09 20:39:00,
2013-03-09 15:41:00,57.6,37.0,30.14,South,173,4.0,7.0,46,0.00,,,0.00,Wunderground v.1.15,2013-03-09 20:41:00,
2013-03-09 15:43:00,57.6,36.4,30.14,South,181,6.0,10.0,45,0.00,,,0.00,Wunderground v.1.15,2013-03-09 20:43:00,
2013-03-09 15:44:00,57.6,37.0,30.14,South,178,4.0,10.0,46,0.00,,,0.00,Wunderground v.1.15,2013-03-09 20:44:00,
2013-03-09 15:46:00,57.6,37.0,30.14,South,187,2.0,10.0,46,0.00,,,0.00,Wunderground v.1.15,2013-03-09 20:46:00,
2013-03-09 15:48:00,57.6,37.0,30.13,South,186,5.0,10.0,46,0.00,,,0.00,Wunderground v.1.15,2013-03-09 20:48:00,
2013-03-09 15:49:00,57.6,37.0,30.13,South,187,3.0,10.0,46,0.00,,,0.00,Wunderground v.1.15,2013-03-09 20:49:00,
2013-03-09 15:50:00,57.6,37.0,30.13,South,189,5.0,6.0,46,0.00,,,0.00,Wunderground v.1.15,2013-03-09 20:50:00,
2013-03-09 15:52:00,57.7,37.0,30.13,South,190,6.0,10.0,46,0.00,,,0.00,Wunderground v.1.15,2013-03-09 20:52:00,
2013-03-09 15:53:00,57.9,37.2,30.13,SSW,195,1.0,10.0,46,0.00,,,0.00,Wunderground v.1.15,2013-03-09 20:53:00,
2013-03-09 15:55:00,58.1,38.0,30.13,SSW,205,4.0,10.0,47,0.00,,,0.00,Wunderground v.1.15,2013-03-09 20:55:00,
2013-03-09 15:57:00,58.4,38.8,30.13,South,190,3.0,10.0,48,0.00,,,0.00,Wunderground v.1.15,2013-03-09 20:57:00,
2013-03-09 15:58:00,58.6,37.9,30.13,SSW,195,3.0,10.0,46,0.00,,,0.00,Wunderground v.1.15,2013-03-09 20:58:00,
2013-03-09 16:00:00,58.8,38.1,30.13,SSW,195,3.0,4.0,46,0.00,,,0.00,Wunderground v.1.15,2013-03-09 21:00:00,
2013-03-09 16:02:00,58.9,37.6,30.13,South,177,5.0,9.0,45,0.00,,,0.00,Wunderground v.1.15,2013-03-09 21:02:00,
2013-03-09 16:03:00,58.8,37.5,30.13,South,176,5.0,10.0,45,0.00,,,0.00,Wunderground v.1.15,2013-03-09 21:03:00,
2013-03-09 16:05:00,58.7,37.4,30.13,South,176,0.0,10.0,45,0.00,,,0.00,Wunderground v.1.15,2013-03-09 21:05:00,
2013-03-09 16:07:00,58.6,37.9,30.13,South,186,0.0,10.0,46,0.00,,,0.00,Wunderground v.1.15,2013-03-09 21:07:00,
2013-03-09 16:08:00,58.6,38.4,30.13,South,182,3.0,10.0,47,0.00,,,0.00,Wunderground v.1.15,2013-03-09 21:08:00,
2013-03-09 16:10:00,58.5,37.8,30.12,SE,142,4.0,10.0,46,0.00,,,0.00,Wunderground v.1.15,2013-03-09 21:10:00,
2013-03-09 16:12:00,58.4,37.7,30.12,SSE,165,3.0,12.0,46,0.00,,,0.00,Wunderground v.1.15,2013-03-09 21:12:00,
2013-03-09 16:14:00,58.3,37.0,30.12,SSE,162,6.0,12.0,45,0.00,,,0.00,Wunderground v.1.15,2013-03-09 21:14:00,
2013-03-09 16:15:00,58.2,36.9,30.12,SSE,165,5.0,12.0,45,0.00,,,0.00,Wunderground v.1.15,2013-03-09 21:15:00,
2013-03-09 16:17:00,58.2,37.5,30.12,South,171,3.0,12.0,46,0.00,,,0.00,Wunderground v.1.15,2013-03-09 21:17:00,
2013-03-09 16:19:00,58.1,37.4,30.12,SSE,166,3.0,12.0,46,0.00,,,0.00,Wunderground v.1.15,2013-03-09 21:19:00,
2013-03-09 16:20:00,58.1,37.4,30.12,South,172,10.0,11.0,46,0.00,,,0.00,Wunderground v.1.15,2013-03-09 21:20:00,
2013-03-09 16:22:00,58.0,36.8,30.12,South,174,5.0,12.0,45,0.00,,,0.00,Wunderground v.1.15,2013-03-09 21:22:00,
2013-03-09 16:24:00,57.9,37.2,30.12,SSE,162,3.0,12.0,46,0.00,,,0.00,Wunderground v.1.15,2013-03-09 21:24:00,
2013-03-09 16:25:00,57.9,36.7,30.12,South,173,2.0,12.0,45,0.00,,,0.00,Wunderground v.1.15,2013-03-09 21:25:00,
2013-03-09 16:26:00,57.9,36.7,30.12,South,173,6.0,12.0,45,0.00,,,0.00,Wunderground v.1.15,2013-03-09 21:26:00,
2013-03-09 16:27:00,57.9,36.7,30.12,South,171,7.0,12.0,45,0.00,,,0.00,Wunderground v.1.15,2013-03-09 21:27:00,
2013-03-09 16:29:00,57.9,37.2,30.13,South,171,2.0,12.0,46,0.00,,,0.00,Wunderground v.1.15,2013-03-09 21:29:00,
2013-03-09 16:30:00,57.9,37.2,30.13,South,173,3.0,6.0,46,0.00,,,0.00,Wunderground v.1.15,2013-03-09 21:30:00,
2013-03-09 16:31:00,57.9,37.2,30.13,South,173,2.0,6.0,46,0.00,,,0.00,Wunderground v.1.15,2013-03-09 21:31:00,
2013-03-09 16:32:00,58.0,37.3,30.13,South,174,1.0,6.0,46,0.00,,,0.00,Wunderground v.1.15,2013-03-09 21:32:00,
2013-03-09 16:34:00,58.0,37.3,30.13,South,174,1.0,6.0,46,0.00,,,0.00,Wunderground v.1.15,2013-03-09 21:34:00,
2013-03-09 16:36:00,58.0,37.9,30.13,South,174,5.0,6.0,47,0.00,,,0.00,Wunderground v.1.15,2013-03-09 21:36:00,
2013-03-09 16:37:00,58.1,37.4,30.13,South,171,5.0,7.0,46,0.00,,,0.00,Wunderground v.1.15,2013-03-09 21:37:00,
2013-03-09 16:39:00,58.2,37.5,30.12,South,171,4.0,7.0,46,0.00,,,0.00,Wunderground v.1.15,2013-03-09 21:39:00,
2013-03-09 16:41:00,58.2,37.5,30.12,South,178,5.0,7.0,46,0.00,,,0.00,Wunderground v.1.15,2013-03-09 21:41:00,
2013-03-09 16:42:00,58.2,37.5,30.12,South,176,4.0,7.0,46,0.00,,,0.00,Wunderground v.1.15,2013-03-09 21:42:00,
2013-03-09 16:44:00,58.2,37.5,30.12,South,176,6.0,7.0,46,0.00,,,0.00,Wunderground v.1.15,2013-03-09 21:44:00,
2013-03-09 16:46:00,58.2,37.5,30.12,SSE,167,6.0,8.0,46,0.00,,,0.00,Wunderground v.1.15,2013-03-09 21:46:00,
2013-03-09 16:47:00,58.2,37.5,30.12,SSE,166,6.0,8.0,46,0.00,,,0.00,Wunderground v.1.15,2013-03-09 21:47:00,
2013-03-09 16:48:00,58.2,38.1,30.12,SSE,163,5.0,8.0,47,0.00,,,0.00,Wunderground v.1.15,2013-03-09 21:48:00,
2013-03-09 16:49:00,58.2,37.5,30.12,SSE,163,9.0,9.0,46,0.00,,,0.00,Wunderground v.1.15,2013-03-09 21:49:00,
2013-03-09 16:51:00,58.2,37.5,30.12,SSE,163,3.0,9.0,46,0.00,,,0.00,Wunderground v.1.15,2013-03-09 21:51:00,
2013-03-09 16:52:00,58.2,38.1,30.12,SSE,163,0.0,9.0,47,0.00,,,0.00,Wunderground v.1.15,2013-03-09 21:52:00,
2013-03-09 16:53:00,58.2,38.1,30.12,SSE,164,3.0,9.0,47,0.00,,,0.00,Wunderground v.1.15,2013-03-09 21:53:00,
2013-03-09 16:54:00,58.2,37.5,30.12,SSE,147,6.0,10.0,46,0.00,,,0.00,Wunderground v.1.15,2013-03-09 21:54:00,
2013-03-09 16:56:00,58.2,36.9,30.12,SSE,164,5.0,10.0,45,0.00,,,0.00,Wunderground v.1.15,2013-03-09 21:56:00,
2013-03-09 16:58:00,58.1,37.4,30.12,SSE,164,4.0,10.0,46,0.00,,,0.00,Wunderground v.1.15,2013-03-09 21:58:00,
2013-03-09 17:00:00,58.2,38.1,30.12,South,187,11.0,11.0,47,0.00,,,0.00,Wunderground v.1.15,2013-03-09 22:00:00,
2013-03-09 17:02:00,58.3,37.6,30.12,SSE,165,4.0,11.0,46,0.00,,,0.00,Wunderground v.1.15,2013-03-09 22:02:00,
2013-03-09 17:03:00,58.4,37.7,30.11,SSE,163,5.0,11.0,46,0.00,,,0.00,Wunderground v.1.15,2013-03-09 22:03:00,
2013-03-09 17:05:00,58.5,38.3,30.11,SSE,165,8.0,11.0,47,0.00,,,0.00,Wunderground v.1.15,2013-03-09 22:05:00,
2013-03-09 17:07:00,58.6,37.3,30.11,SSE,166,7.0,13.0,45,0.00,,,0.00,Wunderground v.1.15,2013-03-09 22:07:00,
2013-03-09 17:08:00,58.6,37.3,30.11,SSE,166,5.0,13.0,45,0.00,,,0.00,Wunderground v.1.15,2013-03-09 22:08:00,
2013-03-09 17:10:00,58.7,37.4,30.11,SSE,165,6.0,9.0,45,0.00,,,0.00,Wunderground v.1.15,2013-03-09 22:10:00,
2013-03-09 17:12:00,58.7,37.4,30.11,SSE,163,2.0,9.0,45,0.00,,,0.00,Wunderground v.1.15,2013-03-09 22:12:00,
2013-03-09 17:13:00,58.7,38.0,30.11,South,170,8.0,10.0,46,0.00,,,0.00,Wunderground v.1.15,2013-03-09 22:13:00,
2013-03-09 17:15:00,58.6,37.3,30.11,South,173,4.0,10.0,45,0.00,,,0.00,Wunderground v.1.15,2013-03-09 22:15:00,
2013-03-09 17:17:00,58.6,37.9,30.11,South,173,5.0,10.0,46,0.00,,,0.00,Wunderground v.1.15,2013-03-09 22:17:00,
2013-03-09 17:18:00,58.6,37.3,30.11,SSE,160,6.0,10.0,45,0.00,,,0.00,Wunderground v.1.15,2013-03-09 22:18:00,
2013-03-09 17:21:00,58.5,37.2,30.11,SSE,159,1.0,5.0,45,0.00,,,0.00,Wunderground v.1.15,2013-03-09 22:21:00,
2013-03-09 17:22:00,58.4,37.7,30.11,SSE,159,0.0,5.0,46,0.00,,,0.00,Wunderground v.1.15,2013-03-09 22:22:00,
2013-03-09 17:24:00,58.4,38.2,30.11,SSE,159,0.0,5.0,47,0.00,,,0.00,Wunderground v.1.15,2013-03-09 22:24:00,
2013-03-09 17:26:00,58.4,38.2,30.11,SSE,159,0.0,5.0,47,0.00,,,0.00,Wunderground v.1.15,2013-03-09 22:26:00,
2013-03-09 17:27:00,58.3,37.6,30.11,SSE,161,4.0,7.0,46,0.00,,,0.00,Wunderground v.1.15,2013-03-09 22:27:00,
2013-03-09 17:29:00,58.2,37.5,30.11,SSE,166,4.0,9.0,46,0.00,,,0.00,Wunderground v.1.15,2013-03-09 22:29:00,
2013-03-09 17:31:00,58.2,37.5,30.10,SSE,166,2.0,4.0,46,0.00,,,0.00,Wunderground v.1.15,2013-03-09 22:31:00,
2013-03-09 17:32:00,58.2,38.1,30.10,SSE,166,0.0,4.0,47,0.00,,,0.00,Wunderground v.1.15,2013-03-09 22:32:00,
2013-03-09 17:34:00,58.1,37.4,30.10,SSE,165,3.0,8.0,46,0.00,,,0.00,Wunderground v.1.15,2013-03-09 22:34:00,
2013-03-09 17:36:00,58.1,38.0,30.10,SSE,165,2.0,8.0,47,0.00,,,0.00,Wunderground v.1.15,2013-03-09 22:36:00,
2013-03-09 17:37:00,58.1,38.0,30.10,SSE,155,5.0,8.0,47,0.00,,,0.00,Wunderground v.1.15,2013-03-09 22:37:00,
2013-03-09 17:39:00,58.0,37.9,30.10,SSE,155,3.0,8.0,47,0.00,,,0.00,Wunderground v.1.15,2013-03-09 22:39:00,
2013-03-09 17:41:00,58.0,37.9,30.10,SSE,154,5.0,7.0,47,0.00,,,0.00,Wunderground v.1.15,2013-03-09 22:41:00,
2013-03-09 17:43:00,57.9,37.8,30.10,SE,146,1.0,8.0,47,0.00,,,0.00,Wunderground v.1.15,2013-03-09 22:43:00,
2013-03-09 17:44:00,57.9,37.8,30.10,SE,146,3.0,8.0,47,0.00,,,0.00,Wunderground v.1.15,2013-03-09 22:44:00,
2013-03-09 17:46:00,57.8,37.7,30.10,SE,146,3.0,8.0,47,0.00,,,0.00,Wunderground v.1.15,2013-03-09 22:46:00,
2013-03-09 17:48:00,57.8,38.2,30.10,SE,146,1.0,8.0,48,0.00,,,0.00,Wunderground v.1.15,2013-03-09 22:48:00,
2013-03-09 17:49:00,57.8,37.7,30.10,SE,146,2.0,8.0,47,0.00,,,0.00,Wunderground v.1.15,2013-03-09 22:49:00,
2013-03-09 17:50:00,57.8,37.7,30.10,SSE,147,6.0,6.0,47,0.00,,,0.00,Wunderground v.1.15,2013-03-09 22:50:00,
2013-03-09 17:51:00,57.7,38.1,30.10,SSE,147,5.0,6.0,48,0.00,,,0.00,Wunderground v.1.15,2013-03-09 22:51:00,
2013-03-09 17:54:00,57.6,38.0,30.10,SSE,147,0.0,6.0,48,0.00,,,0.00,Wunderground v.1.15,2013-03-09 22:54:00,
2013-03-09 17:55:00,57.6,38.0,30.10,SSE,147,1.0,6.0,48,0.00,,,0.00,Wunderground v.1.15,2013-03-09 22:55:00,
2013-03-09 17:56:00,57.5,37.9,30.10,SSE,147,1.0,6.0,48,0.00,,,0.00,Wunderground v.1.15,2013-03-09 22:56:00,
2013-03-09 17:59:00,57.5,37.9,30.10,SSE,147,1.0,6.0,48,0.00,,,0.00,Wunderground v.1.15,2013-03-09 22:59:00,
2013-03-09 18:00:00,57.4,37.9,30.10,SSE,147,4.0,4.0,48,0.00,,,0.00,Wunderground v.1.15,2013-03-09 23:00:00,
2013-03-09 18:01:00,57.4,37.9,30.10,SSE,147,4.0,4.0,48,0.00,,,0.00,Wunderground v.1.15,2013-03-09 23:01:00,
2013-03-09 18:04:00,57.3,38.3,30.09,SSE,147,1.0,5.0,49,0.00,,,0.00,Wunderground v.1.15,2013-03-09 23:04:00,
2013-03-09 18:05:00,57.2,38.2,30.09,SSE,147,1.0,5.0,49,0.00,,,0.00,Wunderground v.1.15,2013-03-09 23:05:00,
2013-03-09 18:06:00,57.2,38.2,30.09,SSE,147,0.0,5.0,49,0.00,,,0.00,Wunderground v.1.15,2013-03-09 23:06:00,
2013-03-09 18:09:00,57.1,38.1,30.09,SE,146,5.0,6.0,49,0.00,,,0.00,Wunderground v.1.15,2013-03-09 23:09:00,
2013-03-09 18:10:00,57.0,38.0,30.09,SE,146,3.0,5.0,49,0.00,,,0.00,Wunderground v.1.15,2013-03-09 23:10:00,
2013-03-09 18:11:00,57.0,38.5,30.09,SE,146,2.0,5.0,50,0.00,,,0.00,Wunderground v.1.15,2013-03-09 23:11:00,
2013-03-09 18:14:00,56.9,37.9,30.09,SE,144,5.0,6.0,49,0.00,,,0.00,Wunderground v.1.15,2013-03-09 23:14:00,
2013-03-09 18:15:00,56.8,37.8,30.09,SE,145,1.0,6.0,49,0.00,,,0.00,Wunderground v.1.15,2013-03-09 23:15:00,
2013-03-09 18:16:00,56.8,38.3,30.09,SE,144,5.0,6.0,50,0.00,,,0.00,Wunderground v.1.15,2013-03-09 23:16:00,
2013-03-09 18:17:00,56.8,38.3,30.09,SE,145,4.0,6.0,50,0.00,,,0.00,Wunderground v.1.15,2013-03-09 23:17:00,
2013-03-09 18:20:00,56.7,38.3,30.09,SE,144,3.0,5.0,50,0.00,,,0.00,Wunderground v.1.15,2013-03-09 23:20:00,
2013-03-09 18:21:00,56.6,38.2,30.09,SE,144,2.0,6.0,50,0.00,,,0.00,Wunderground v.1.15,2013-03-09 23:21:00,
2013-03-09 18:22:00,56.6,38.2,30.09,SE,143,3.0,6.0,50,0.00,,,0.00,Wunderground v.1.15,2013-03-09 23:22:00,
2013-03-09 18:25:00,56.6,38.2,30.09,SE,143,4.0,6.0,50,0.00,,,0.00,Wunderground v.1.15,2013-03-09 23:25:00,
2013-03-09 18:26:00,56.5,38.1,30.09,SE,143,1.0,6.0,50,0.00,,,0.00,Wunderground v.1.15,2013-03-09 23:26:00,
2013-03-09 18:27:00,56.5,38.1,30.09,SE,144,5.0,6.0,50,0.00,,,0.00,Wunderground v.1.15,2013-03-09 23:27:00,
2013-03-09 18:30:00,56.4,38.0,30.09,SE,143,4.0,5.0,50,0.00,,,0.00,Wunderground v.1.15,2013-03-09 23:30:00,
2013-03-09 18:31:00,56.3,37.9,30.09,SE,143,2.0,5.0,50,0.00,,,0.00,Wunderground v.1.15,2013-03-09 23:31:00,
2013-03-09 18:32:00,56.3,37.9,30.09,SE,142,4.0,5.0,50,0.00,,,0.00,Wunderground v.1.15,2013-03-09 23:32:00,
2013-03-09 18:35:00,56.2,37.8,30.09,SE,141,2.0,7.0,50,0.00,,,0.00,Wunderground v.1.15,2013-03-09 23:35:00,
2013-03-09 18:36:00,56.2,37.8,30.09,SE,138,7.0,7.0,50,0.00,,,0.00,Wunderground v.1.15,2013-03-09 23:36:00,
2013-03-09 18:37:00,56.1,37.7,30.09,SE,138,0.0,7.0,50,0.00,,,0.00,Wunderground v.1.15,2013-03-09 23:37:00,
2013-03-09 18:40:00,56.1,38.2,30.09,SE,138,0.0,4.0,51,0.00,,,0.00,Wunderground v.1.15,2013-03-09 23:40:00,
2013-03-09 18:41:00,56.0,37.6,30.09,SE,138,0.0,4.0,50,0.00,,,0.00,Wunderground v.1.15,2013-03-09 23:41:00,
2013-03-09 18:42:00,56.0,37.6,30.09,SE,138,4.0,5.0,50,0.00,,,0.00,Wunderground v.1.15,2013-03-09 23:42:00,
2013-03-09 18:45:00,55.9,38.0,30.08,SE,138,3.0,5.0,51,0.00,,,0.00,Wunderground v.1.15,2013-03-09 23:45:00,
2013-03-09 18:46:00,55.9,38.0,30.08,SE,138,0.0,5.0,51,0.00,,,0.00,Wunderground v.1.15,2013-03-09 23:46:00,
2013-03-09 18:48:00,55.8,37.9,30.08,SE,138,2.0,5.0,51,0.00,,,0.00,Wunderground v.1.15,2013-03-09 23:48:00,
2013-03-09 18:51:00,55.8,37.9,30.08,SE,138,3.0,5.0,51,0.00,,,0.00,Wunderground v.1.15,2013-03-09 23:51:00,
2013-03-09 18:52:00,55.7,37.3,30.08,SE,138,0.0,5.0,50,0.00,,,0.00,Wunderground v.1.15,2013-03-09 23:52:00,
2013-03-09 18:53:00,55.7,37.8,30.08,SE,138,0.0,6.0,51,0.00,,,0.00,Wunderground v.1.15,2013-03-09 23:53:00,
2013-03-09 18:56:00,55.6,37.2,30.08,SE,138,2.0,6.0,50,0.00,,,0.00,Wunderground v.1.15,2013-03-09 23:56:00,
2013-03-09 18:57:00,55.6,37.7,30.08,SE,138,2.0,6.0,51,0.00,,,0.00,Wunderground v.1.15,2013-03-09 23:57:00,
2013-03-09 18:58:00,55.6,37.2,30.08,SE,138,1.0,6.0,50,0.00,,,0.00,Wunderground v.1.15,2013-03-09 23:58:00,
2013-03-09 19:01:00,55.5,37.7,30.09,SE,138,0.0,4.0,51,0.00,,,0.00,Wunderground v.1.15,2013-03-10 00:01:00,
2013-03-09 19:02:00,55.5,37.7,30.09,SE,138,4.0,5.0,51,0.00,,,0.00,Wunderground v.1.15,2013-03-10 00:02:00,
2013-03-09 19:03:00,55.5,37.1,30.09,SE,138,1.0,5.0,50,0.00,,,0.00,Wunderground v.1.15,2013-03-10 00:03:00,
2013-03-09 19:06:00,55.5,37.7,30.08,SE,138,1.0,5.0,51,0.00,,,0.00,Wunderground v.1.15,2013-03-10 00:06:00,
2013-03-09 19:07:00,55.4,37.1,30.09,SE,138,0.0,5.0,50,0.00,,,0.00,Wunderground v.1.15,2013-03-10 00:07:00,
2013-03-09 19:08:00,55.4,37.6,30.08,SE,138,0.0,5.0,51,0.00,,,0.00,Wunderground v.1.15,2013-03-10 00:08:00,
2013-03-09 19:11:00,55.4,37.6,30.08,SE,138,0.0,2.0,51,0.00,,,0.00,Wunderground v.1.15,2013-03-10 00:11:00,
2013-03-09 19:12:00,55.3,37.5,30.08,SE,138,0.0,2.0,51,0.00,,,0.00,Wunderground v.1.15,2013-03-10 00:12:00,
2013-03-09 19:13:00,55.3,38.0,30.08,SE,138,0.0,3.0,52,0.00,,,0.00,Wunderground v.1.15,2013-03-10 00:13:00,
2013-03-09 19:16:00,55.2,37.9,30.08,SE,138,0.0,3.0,52,0.00,,,0.00,Wunderground v.1.15,2013-03-10 00:16:00,
2013-03-09 19:17:00,55.1,37.8,30.08,SE,138,0.0,3.0,52,0.00,,,0.00,Wunderground v.1.15,2013-03-10 00:17:00,
2013-03-09 19:18:00,55.1,37.8,30.08,SE,138,1.0,3.0,52,0.00,,,0.00,Wunderground v.1.15,2013-03-10 00:18:00,
2013-03-09 19:21:00,55.0,37.7,30.08,SE,138,4.0,4.0,52,0.00,,,0.00,Wunderground v.1.15,2013-03-10 00:21:00,
2013-03-09 19:22:00,55.0,37.7,30.08,SE,138,0.0,4.0,52,0.00,,,0.00,Wunderground v.1.15,2013-03-10 00:22:00,
2013-03-09 19:23:00,54.9,37.1,30.08,SE,138,0.0,4.0,51,0.00,,,0.00,Wunderground v.1.15,2013-03-10 00:23:00,
2013-03-09 19:26:00,54.8,37.5,30.08,SE,138,0.0,4.0,52,0.00,,,0.00,Wunderground v.1.15,2013-03-10 00:26:00,
2013-03-09 19:27:00,54.8,37.5,30.08,SE,138,1.0,4.0,52,0.00,,,0.00,Wunderground v.1.15,2013-03-10 00:27:00,
2013-03-09 19:28:00,54.8,37.5,30.08,SE,138,1.0,4.0,52,0.00,,,0.00,Wunderground v.1.15,2013-03-10 00:28:00,
2013-03-09 19:31:00,54.7,37.4,30.08,SE,138,1.0,5.0,52,0.00,,,0.00,Wunderground v.1.15,2013-03-10 00:31:00,
2013-03-09 19:32:00,54.7,37.4,30.08,SE,138,0.0,5.0,52,0.00,,,0.00,Wunderground v.1.15,2013-03-10 00:32:00,
2013-03-09 19:33:00,54.6,37.3,30.08,SE,138,0.0,5.0,52,0.00,,,0.00,Wunderground v.1.15,2013-03-10 00:33:00,
2013-03-09 19:37:00,54.6,37.3,30.08,SE,138,0.0,5.0,52,0.00,,,0.00,Wunderground v.1.15,2013-03-10 00:37:00,
2013-03-09 19:38:00,54.5,37.2,30.08,SE,138,0.0,5.0,52,0.00,,,0.00,Wunderground v.1.15,2013-03-10 00:38:00,
2013-03-09 19:42:00,54.4,37.1,30.08,SE,138,0.0,1.0,52,0.00,,,0.00,Wunderground v.1.15,2013-03-10 00:42:00,
2013-03-09 19:43:00,54.4,37.1,30.09,SE,138,0.0,1.0,52,0.00,,,0.00,Wunderground v.1.15,2013-03-10 00:43:00,
2013-03-09 19:44:00,54.3,37.0,30.09,SE,138,0.0,1.0,52,0.00,,,0.00,Wunderground v.1.15,2013-03-10 00:44:00,
2013-03-09 19:47:00,54.2,36.9,30.09,SE,138,0.0,4.0,52,0.00,,,0.00,Wunderground v.1.15,2013-03-10 00:47:00,
2013-03-09 19:48:00,54.2,36.9,30.09,SE,138,0.0,4.0,52,0.00,,,0.00,Wunderground v.1.15,2013-03-10 00:48:00,
2013-03-09 19:49:00,54.1,36.9,30.09,SE,138,0.0,4.0,52,0.00,,,0.00,Wunderground v.1.15,2013-03-10 00:49:00,
2013-03-09 19:52:00,54.0,37.2,30.09,SE,138,2.0,4.0,53,0.00,,,0.00,Wunderground v.1.15,2013-03-10 00:52:00,
2013-03-09 19:53:00,54.0,36.8,30.09,SE,138,0.0,4.0,52,0.00,,,0.00,Wunderground v.1.15,2013-03-10 00:53:00,
2013-03-09 19:54:00,54.0,36.8,30.09,SE,138,0.0,4.0,52,0.00,,,0.00,Wunderground v.1.15,2013-03-10 00:54:00,
2013-03-09 19:57:00,53.9,37.1,30.09,SE,138,3.0,4.0,53,0.00,,,0.00,Wunderground v.1.15,2013-03-10 00:57:00,
2013-03-09 19:58:00,53.9,37.1,30.09,SE,138,0.0,4.0,53,0.00,,,0.00,Wunderground v.1.15,2013-03-10 00:58:00,
2013-03-09 19:59:00,53.8,37.1,30.08,SE,138,3.0,4.0,53,0.00,,,0.00,Wunderground v.1.15,2013-03-10 00:59:00,
2013-03-09 20:02:00,53.8,37.1,30.08,SE,138,0.0,4.0,53,0.00,,,0.00,Wunderground v.1.15,2013-03-10 01:02:00,
2013-03-09 20:03:00,53.8,37.1,30.08,SE,138,0.0,4.0,53,0.00,,,0.00,Wunderground v.1.15,2013-03-10 01:03:00,
2013-03-09 20:04:00,53.7,37.0,30.08,SE,139,3.0,5.0,53,0.00,,,0.00,Wunderground v.1.15,2013-03-10 01:04:00,
2013-03-09 20:07:00,53.7,37.4,30.08,SE,138,4.0,5.0,54,0.00,,,0.00,Wunderground v.1.15,2013-03-10 01:07:00,
2013-03-09 20:08:00,53.7,37.4,30.08,SE,138,2.0,5.0,54,0.00,,,0.00,Wunderground v.1.15,2013-03-10 01:08:00,
2013-03-09 20:09:00,53.7,37.4,30.08,SE,138,2.0,5.0,54,0.00,,,0.00,Wunderground v.1.15,2013-03-10 01:09:00,
2013-03-09 20:12:00,53.7,37.4,30.08,SE,138,3.0,7.0,54,0.00,,,0.00,Wunderground v.1.15,2013-03-10 01:12:00,
2013-03-09 20:13:00,53.7,37.4,30.08,SE,136,5.0,9.0,54,0.00,,,0.00,Wunderground v.1.15,2013-03-10 01:13:00,
2013-03-09 20:14:00,53.7,37.0,30.08,SE,137,3.0,9.0,53,0.00,,,0.00,Wunderground v.1.15,2013-03-10 01:14:00,
2013-03-09 20:15:00,53.7,37.0,30.08,SE,136,0.0,9.0,53,0.00,,,0.00,Wunderground v.1.15,2013-03-10 01:15:00,
2013-03-09 20:17:00,53.7,37.4,30.07,SE,137,2.0,9.0,54,0.00,,,0.00,Wunderground v.1.15,2013-03-10 01:17:00,
2013-03-09 20:18:00,53.7,37.4,30.07,SE,137,4.0,9.0,54,0.00,,,0.00,Wunderground v.1.15,2013-03-10 01:18:00,
2013-03-09 20:19:00,53.7,37.4,30.07,SE,136,2.0,9.0,54,0.00,,,0.00,Wunderground v.1.15,2013-03-10 01:19:00,
2013-03-09 20:20:00,53.7,37.4,30.07,SE,136,6.0,6.0,54,0.00,,,0.00,Wunderground v.1.15,2013-03-10 01:20:00,
2013-03-09 20:22:00,53.7,37.9,30.07,SE,136,3.0,6.0,55,0.00,,,0.00,Wunderground v.1.15,2013-03-10 01:22:00,
2013-03-09 20:24:00,53.7,37.4,30.07,SE,136,4.0,6.0,54,0.00,,,0.00,Wunderground v.1.15,2013-03-10 01:24:00,
2013-03-09 20:25:00,53.7,37.4,30.07,SE,138,2.0,6.0,54,0.00,,,0.00,Wunderground v.1.15,2013-03-10 01:25:00,
2013-03-09 20:27:00,53.7,37.4,30.07,SE,142,5.0,7.0,54,0.00,,,0.00,Wunderground v.1.15,2013-03-10 01:27:00,
2013-03-09 20:29:00,53.7,37.4,30.07,SE,142,3.0,7.0,54,0.00,,,0.00,Wunderground v.1.15,2013-03-10 01:29:00,
2013-03-09 20:30:00,53.7,37.4,30.07,SE,142,4.0,4.0,54,0.00,,,0.00,Wunderground v.1.15,2013-03-10 01:30:00,
2013-03-09 20:32:00,53.7,37.9,30.07,SE,144,2.0,6.0,55,0.00,,,0.00,Wunderground v.1.15,2013-03-10 01:32:00,
2013-03-09 20:34:00,53.7,37.4,30.06,SE,143,4.0,6.0,54,0.00,,,0.00,Wunderground v.1.15,2013-03-10 01:34:00,
2013-03-09 20:35:00,53.7,37.4,30.06,SE,144,2.0,6.0,54,0.00,,,0.00,Wunderground v.1.15,2013-03-10 01:35:00,
2013-03-09 20:37:00,53.6,37.3,30.06,SE,144,2.0,6.0,54,0.00,,,0.00,Wunderground v.1.15,2013-03-10 01:37:00,
2013-03-09 20:39:00,53.6,37.3,30.07,SE,144,2.0,6.0,54,0.00,,,0.00,Wunderground v.1.15,2013-03-10 01:39:00,
2013-03-09 20:40:00,53.6,37.3,30.07,SE,144,0.0,4.0,54,0.00,,,0.00,Wunderground v.1.15,2013-03-10 01:40:00,
2013-03-09 20:41:00,53.6,37.3,30.07,SE,144,1.0,4.0,54,0.00,,,0.00,Wunderground v.1.15,2013-03-10 01:41:00,
2013-03-09 20:43:00,53.6,37.3,30.07,SE,144,2.0,4.0,54,0.00,,,0.00,Wunderground v.1.15,2013-03-10 01:43:00,
2013-03-09 20:44:00,53.5,36.8,30.07,SE,144,2.0,4.0,53,0.00,,,0.00,Wunderground v.1.15,2013-03-10 01:44:00,
2013-03-09 20:45:00,53.5,36.8,30.07,SE,144,0.0,5.0,53,0.00,,,0.00,Wunderground v.1.15,2013-03-10 01:45:00,
2013-03-09 20:46:00,53.5,37.3,30.07,SE,144,0.0,5.0,54,0.00,,,0.00,Wunderground v.1.15,2013-03-10 01:46:00,
2013-03-09 20:48:00,53.4,37.2,30.07,SE,143,0.0,5.0,54,0.00,,,0.00,Wunderground v.1.15,2013-03-10 01:48:00,
2013-03-09 20:49:00,53.4,37.2,30.07,SE,143,2.0,5.0,54,0.00,,,0.00,Wunderground v.1.15,2013-03-10 01:49:00,
2013-03-09 20:50:00,53.3,37.1,30.07,SE,144,0.0,4.0,54,0.00,,,0.00,Wunderground v.1.15,2013-03-10 01:50:00,
2013-03-09 20:51:00,53.3,37.1,30.07,SE,144,0.0,4.0,54,0.00,,,0.00,Wunderground v.1.15,2013-03-10 01:51:00,
2013-03-09 20:53:00,53.3,37.1,30.07,SE,144,1.0,4.0,54,0.00,,,0.00,Wunderground v.1.15,2013-03-10 01:53:00,
2013-03-09 20:54:00,53.2,37.0,30.07,SE,143,2.0,4.0,54,0.00,,,0.00,Wunderground v.1.15,2013-03-10 01:54:00,
2013-03-09 20:56:00,53.2,37.0,30.07,SE,144,2.0,4.0,54,0.00,,,0.00,Wunderground v.1.15,2013-03-10 01:56:00,
2013-03-09 20:58:00,53.2,37.0,30.07,SE,144,0.0,4.0,54,0.00,,,0.00,Wunderground v.1.15,2013-03-10 01:58:00,
2013-03-09 20:59:00,53.1,36.9,30.07,SE,144,0.0,4.0,54,0.00,,,0.00,Wunderground v.1.15,2013-03-10 01:59:00,
2013-03-09 21:01:00,53.1,36.9,30.07,SE,143,2.0,2.0,54,0.00,,,0.00,Wunderground v.1.15,2013-03-10 02:01:00,
2013-03-09 21:03:00,53.1,37.3,30.07,SE,144,3.0,6.0,55,0.00,,,0.00,Wunderground v.1.15,2013-03-10 02:03:00,
2013-03-09 21:05:00,53.0,37.3,30.07,SE,144,1.0,6.0,55,0.00,,,0.00,Wunderground v.1.15,2013-03-10 02:05:00,
2013-03-09 21:06:00,53.0,36.8,30.07,SE,146,7.0,7.0,54,0.00,,,0.00,Wunderground v.1.15,2013-03-10 02:06:00,
2013-03-09 21:07:00,53.0,37.3,30.06,SE,146,3.0,7.0,55,0.00,,,0.00,Wunderground v.1.15,2013-03-10 02:07:00,
2013-03-09 21:08:00,53.0,37.3,30.06,SE,146,1.0,7.0,55,0.00,,,0.00,Wunderground v.1.15,2013-03-10 02:08:00,
2013-03-09 21:10:00,52.9,37.2,30.06,SE,146,3.0,4.0,55,0.00,,,0.00,Wunderground v.1.15,2013-03-10 02:10:00,
2013-03-09 21:11:00,52.9,37.2,30.07,SE,146,5.0,5.0,55,0.00,,,0.00,Wunderground v.1.15,2013-03-10 02:11:00,
2013-03-09 21:12:00,52.9,37.2,30.07,SE,146,2.0,5.0,55,0.00,,,0.00,Wunderground v.1.15,2013-03-10 02:12:00,
2013-03-09 21:14:00,52.8,36.6,30.07,SSE,148,4.0,5.0,54,0.00,,,0.00,Wunderground v.1.15,2013-03-10 02:14:00,
2013-03-09 21:16:00,52.8,36.6,30.07,SSE,149,4.0,6.0,54,0.00,,,0.00,Wunderground v.1.15,2013-03-10 02:16:00,
2013-03-09 21:17:00,52.8,36.6,30.07,SSE,149,3.0,6.0,54,0.00,,,0.00,Wunderground v.1.15,2013-03-10 02:17:00,
2013-03-09 21:19:00,52.9,36.7,30.07,SSE,149,4.0,6.0,54,0.00,,,0.00,Wunderground v.1.15,2013-03-10 02:19:00,
2013-03-09 21:21:00,52.9,36.7,30.07,SSE,153,1.0,7.0,54,0.00,,,0.00,Wunderground v.1.15,2013-03-10 02:21:00,
2013-03-09 21:22:00,52.9,36.7,30.07,SSE,153,0.0,7.0,54,0.00,,,0.00,Wunderground v.1.15,2013-03-10 02:22:00,
2013-03-09 21:24:00,53.0,36.8,30.07,SSE,153,4.0,7.0,54,0.00,,,0.00,Wunderground v.1.15,2013-03-10 02:24:00,
2013-03-09 21:26:00,53.1,36.9,30.07,SSE,153,1.0,7.0,54,0.00,,,0.00,Wunderground v.1.15,2013-03-10 02:26:00,
2013-03-09 21:27:00,53.2,37.0,30.07,SSE,153,3.0,7.0,54,0.00,,,0.00,Wunderground v.1.15,2013-03-10 02:27:00,
2013-03-09 21:28:00,53.2,37.0,30.07,SSE,153,2.0,7.0,54,0.00,,,0.00,Wunderground v.1.15,2013-03-10 02:28:00,
2013-03-09 21:29:00,53.3,37.1,30.07,SSE,153,1.0,7.0,54,0.00,,,0.00,Wunderground v.1.15,2013-03-10 02:29:00,
2013-03-09 21:31:00,53.3,37.1,30.07,SSE,151,2.0,6.0,54,0.00,,,0.00,Wunderground v.1.15,2013-03-10 02:31:00,
2013-03-09 21:32:00,53.3,37.1,30.07,SSE,151,3.0,6.0,54,0.00,,,0.00,Wunderground v.1.15,2013-03-10 02:32:00,
2013-03-09 21:33:00,53.4,37.2,30.07,SSE,151,3.0,6.0,54,0.00,,,0.00,Wunderground v.1.15,2013-03-10 02:33:00,
2013-03-09 21:34:00,53.4,37.2,30.07,SSE,151,0.0,6.0,54,0.00,,,0.00,Wunderground v.1.15,2013-03-10 02:34:00,
2013-03-09 21:36:00,53.4,37.2,30.07,SSE,151,1.0,6.0,54,0.00,,,0.00,Wunderground v.1.15,2013-03-10 02:36:00,
2013-03-09 21:37:00,53.4,37.2,30.07,SSE,151,0.0,6.0,54,0.00,,,0.00,Wunderground v.1.15,2013-03-10 02:37:00,
2013-03-09 21:38:00,53.4,37.2,30.07,SSE,151,0.0,6.0,54,0.00,,,0.00,Wunderground v.1.15,2013-03-10 02:38:00,
2013-03-09 21:39:00,53.4,36.7,30.07,SSE,151,4.0,6.0,53,0.00,,,0.00,Wunderground v.1.15,2013-03-10 02:39:00,
2013-03-09 21:41:00,53.4,37.2,30.07,SSE,151,3.0,4.0,54,0.00,,,0.00,Wunderground v.1.15,2013-03-10 02:41:00,
2013-03-09 21:43:00,53.4,37.2,30.07,SSE,151,1.0,4.0,54,0.00,,,0.00,Wunderground v.1.15,2013-03-10 02:43:00,
2013-03-09 21:44:00,53.3,37.1,30.07,SSE,151,2.0,4.0,54,0.00,,,0.00,Wunderground v.1.15,2013-03-10 02:44:00,
2013-03-09 21:47:00,53.3,36.6,30.07,SSE,151,0.0,5.0,53,0.00,,,0.00,Wunderground v.1.15,2013-03-10 02:47:00,
2013-03-09 21:48:00,53.3,36.6,30.07,SSE,151,2.0,5.0,53,0.00,,,0.00,Wunderground v.1.15,2013-03-10 02:48:00,
2013-03-09 21:49:00,53.2,37.0,30.07,SSE,151,2.0,5.0,54,0.00,,,0.00,Wunderground v.1.15,2013-03-10 02:49:00,
2013-03-09 21:52:00,53.2,37.0,30.07,SSE,151,0.0,1.0,54,0.00,,,0.00,Wunderground v.1.15,2013-03-10 02:52:00,
2013-03-09 21:53:00,53.2,36.5,30.07,SSE,151,0.0,1.0,53,0.00,,,0.00,Wunderground v.1.15,2013-03-10 02:53:00,
2013-03-09 21:54:00,53.2,36.5,30.07,SSE,151,1.0,2.0,53,0.00,,,0.00,Wunderground v.1.15,2013-03-10 02:54:00,
2013-03-09 21:57:00,53.2,37.0,30.08,SSE,151,0.0,2.0,54,0.00,,,0.00,Wunderground v.1.15,2013-03-10 02:57:00,
2013-03-09 21:58:00,53.2,37.0,30.08,SSE,151,0.0,2.0,54,0.00,,,0.00,Wunderground v.1.15,2013-03-10 02:58:00,
2013-03-09 21:59:00,53.1,36.9,30.08,SSE,151,0.0,2.0,54,0.00,,,0.00,Wunderground v.1.15,2013-03-10 02:59:00,
2013-03-09 22:00:00,53.1,36.9,30.08,SSE,151,0.0,0.0,54,0.00,,,0.00,Wunderground v.1.15,2013-03-10 03:00:00,
2013-03-09 22:02:00,53.1,36.9,30.07,SSE,151,0.0,0.0,54,0.00,,,0.00,Wunderground v.1.15,2013-03-10 03:02:00,
2013-03-09 22:03:00,53.1,37.3,30.07,SSE,151,0.0,0.0,55,0.00,,,0.00,Wunderground v.1.15,2013-03-10 03:03:00,
2013-03-09 22:04:00,53.1,37.3,30.08,SSE,151,1.0,1.0,55,0.00,,,0.00,Wunderground v.1.15,2013-03-10 03:04:00,
2013-03-09 22:05:00,53.0,37.3,30.07,SSE,151,0.0,1.0,55,0.00,,,0.00,Wunderground v.1.15,2013-03-10 03:05:00,
2013-03-09 22:07:00,53.0,37.3,30.07,SSE,151,0.0,1.0,55,0.00,,,0.00,Wunderground v.1.15,2013-03-10 03:07:00,
2013-03-09 22:08:00,52.9,37.6,30.07,SSE,151,0.0,2.0,56,0.00,,,0.00,Wunderground v.1.15,2013-03-10 03:08:00,
2013-03-09 22:09:00,52.9,37.6,30.07,SSE,151,1.0,2.0,56,0.00,,,0.00,Wunderground v.1.15,2013-03-10 03:09:00,
2013-03-09 22:10:00,52.9,37.6,30.07,SSE,151,0.0,0.0,56,0.00,,,0.00,Wunderground v.1.15,2013-03-10 03:10:00,
2013-03-09 22:12:00,52.8,37.5,30.07,SSE,151,0.0,3.0,56,0.00,,,0.00,Wunderground v.1.15,2013-03-10 03:12:00,
2013-03-09 22:14:00,52.8,37.5,30.07,SSE,151,0.0,3.0,56,0.00,,,0.00,Wunderground v.1.15,2013-03-10 03:14:00,
2013-03-09 22:16:00,52.7,37.4,30.07,SSE,151,3.0,3.0,56,0.00,,,0.00,Wunderground v.1.15,2013-03-10 03:16:00,
2013-03-09 22:17:00,52.7,37.4,30.07,SSE,151,0.0,4.0,56,0.00,,,0.00,Wunderground v.1.15,2013-03-10 03:17:00,
2013-03-09 22:19:00,52.6,37.3,30.07,SSE,151,3.0,4.0,56,0.00,,,0.00,Wunderground v.1.15,2013-03-10 03:19:00,
2013-03-09 22:20:00,52.6,37.3,30.07,SSE,151,0.0,1.0,56,0.00,,,0.00,Wunderground v.1.15,2013-03-10 03:20:00,
2013-03-09 22:22:00,52.6,37.3,30.07,SSE,151,2.0,4.0,56,0.00,,,0.00,Wunderground v.1.15,2013-03-10 03:22:00,
2013-03-09 22:24:00,52.5,37.2,30.07,SSE,151,2.0,4.0,56,0.00,,,0.00,Wunderground v.1.15,2013-03-10 03:24:00,
2013-03-09 22:25:00,52.5,37.2,30.07,SSE,151,3.0,4.0,56,0.00,,,0.00,Wunderground v.1.15,2013-03-10 03:25:00,
2013-03-09 22:27:00,52.5,37.2,30.07,SSE,151,2.0,4.0,56,0.00,,,0.00,Wunderground v.1.15,2013-03-10 03:27:00,
2013-03-09 22:29:00,52.4,37.2,30.07,SSE,151,3.0,4.0,56,0.00,,,0.00,Wunderground v.1.15,2013-03-10 03:29:00,
2013-03-09 22:30:00,52.4,36.7,30.07,SSE,151,1.0,4.0,55,0.00,,,0.00,Wunderground v.1.15,2013-03-10 03:30:00,
2013-03-09 22:32:00,52.4,36.7,30.07,SSE,151,3.0,4.0,55,0.00,,,0.00,Wunderground v.1.15,2013-03-10 03:32:00,
2013-03-09 22:33:00,52.3,36.6,30.07,SSE,151,1.0,4.0,55,0.00,,,0.00,Wunderground v.1.15,2013-03-10 03:33:00,
2013-03-09 22:35:00,52.3,36.6,30.07,SSE,151,3.0,4.0,55,0.00,,,0.00,Wunderground v.1.15,2013-03-10 03:35:00,
2013-03-09 22:36:00,52.3,37.1,30.07,SSE,151,3.0,4.0,56,0.00,,,0.00,Wunderground v.1.15,2013-03-10 03:36:00,
2013-03-09 22:37:00,52.3,37.1,30.06,SSE,151,3.0,5.0,56,0.00,,,0.00,Wunderground v.1.15,2013-03-10 03:37:00,
2013-03-09 22:38:00,52.2,37.0,30.06,SSE,151,5.0,5.0,56,0.00,,,0.00,Wunderground v.1.15,2013-03-10 03:38:00,
2013-03-09 22:40:00,52.2,37.0,30.06,SSE,151,2.0,2.0,56,0.00,,,0.00,Wunderground v.1.15,2013-03-10 03:40:00,
2013-03-09 22:41:00,52.1,36.9,30.06,SSE,151,3.0,5.0,56,0.00,,,0.00,Wunderground v.1.15,2013-03-10 03:41:00,
2013-03-09 22:42:00,52.1,37.3,30.06,SSE,151,2.0,5.0,57,0.00,,,0.00,Wunderground v.1.15,2013-03-10 03:42:00,
2013-03-09 22:43:00,52.1,37.3,30.06,SSE,151,4.0,5.0,57,0.00,,,0.00,Wunderground v.1.15,2013-03-10 03:43:00,
2013-03-09 22:45:00,51.9,37.1,30.06,SSE,151,2.0,5.0,57,0.00,,,0.00,Wunderground v.1.15,2013-03-10 03:45:00,
2013-03-09 22:46:00,51.8,37.0,30.06,SSE,151,3.0,5.0,57,0.00,,,0.00,Wunderground v.1.15,2013-03-10 03:46:00,
2013-03-09 22:48:00,51.7,36.9,30.06,SSE,151,2.0,5.0,57,0.00,,,0.00,Wunderground v.1.15,2013-03-10 03:48:00,
2013-03-09 22:51:00,51.5,36.8,30.06,SSE,151,3.0,3.0,57,0.00,,,0.00,Wunderground v.1.15,2013-03-10 03:51:00,
2013-03-09 22:53:00,51.4,36.7,30.06,SSE,151,1.0,6.0,57,0.00,,,0.00,Wunderground v.1.15,2013-03-10 03:53:00,
2013-03-09 22:56:00,51.3,36.6,30.06,SSE,151,5.0,6.0,57,0.00,,,0.00,Wunderground v.1.15,2013-03-10 03:56:00,
2013-03-09 22:58:00,51.2,36.0,30.06,SSE,152,4.0,6.0,56,0.00,,,0.00,Wunderground v.1.15,2013-03-10 03:58:00,
2013-03-09 23:01:00,51.3,36.1,30.06,SSE,152,3.0,5.0,56,0.00,,,0.00,Wunderground v.1.15,2013-03-10 04:01:00,
2013-03-09 23:02:00,51.3,36.1,30.06,SSE,152,0.0,5.0,56,0.00,,,0.00,Wunderground v.1.15,2013-03-10 04:02:00,
2013-03-09 23:03:00,51.3,36.1,30.05,SSE,152,1.0,5.0,56,0.00,,,0.00,Wunderground v.1.15,2013-03-10 04:03:00,
2013-03-09 23:06:00,51.5,36.3,30.06,SSE,155,2.0,9.0,56,0.00,,,0.00,Wunderground v.1.15,2013-03-10 04:06:00,
2013-03-09 23:07:00,51.5,36.3,30.06,SSE,155,1.0,9.0,56,0.00,,,0.00,Wunderground v.1.15,2013-03-10 04:07:00,
2013-03-09 23:08:00,51.6,36.4,30.06,SSE,155,0.0,9.0,56,0.00,,,0.00,Wunderground v.1.15,2013-03-10 04:08:00,
2013-03-09 23:12:00,51.8,36.1,30.05,SSE,155,0.0,5.0,55,0.00,,,0.00,Wunderground v.1.15,2013-03-10 04:12:00,
2013-03-09 23:13:00,51.9,36.2,30.05,SSE,157,4.0,6.0,55,0.00,,,0.00,Wunderground v.1.15,2013-03-10 04:13:00,
2013-03-09 23:17:00,52.2,36.5,30.05,SSE,157,5.0,6.0,55,0.00,,,0.00,Wunderground v.1.15,2013-03-10 04:17:00,
2013-03-09 23:18:00,52.3,36.6,30.05,SSE,157,4.0,6.0,55,0.00,,,0.00,Wunderground v.1.15,2013-03-10 04:18:00,
2013-03-09 23:22:00,52.6,36.9,30.05,SSE,157,2.0,4.0,55,0.00,,,0.00,Wunderground v.1.15,2013-03-10 04:22:00,
2013-03-09 23:24:00,52.6,36.9,30.05,SSE,157,1.0,5.0,55,0.00,,,0.00,Wunderground v.1.15,2013-03-10 04:24:00,
2013-03-09 23:27:00,52.7,36.5,30.05,SSE,157,1.0,5.0,54,0.00,,,0.00,Wunderground v.1.15,2013-03-10 04:27:00,
2013-03-09 23:29:00,52.7,36.5,30.05,SSE,157,3.0,5.0,54,0.00,,,0.00,Wunderground v.1.15,2013-03-10 04:29:00,
2013-03-09 23:32:00,52.9,36.2,30.05,SSE,157,3.0,4.0,53,0.00,,,0.00,Wunderground v.1.15,2013-03-10 04:32:00,
2013-03-09 23:34:00,53.0,36.8,30.05,SSE,157,4.0,5.0,54,0.00,,,0.00,Wunderground v.1.15,2013-03-10 04:34:00,
2013-03-09 23:37:00,53.2,36.5,30.04,SSE,157,1.0,6.0,53,0.00,,,0.00,Wunderground v.1.15,2013-03-10 04:37:00,
2013-03-09 23:38:00,53.2,36.5,30.04,SSE,157,6.0,6.0,53,0.00,,,0.00,Wunderground v.1.15,2013-03-10 04:38:00,
2013-03-09 23:39:00,53.2,36.5,30.04,SSE,157,0.0,6.0,53,0.00,,,0.00,Wunderground v.1.15,2013-03-10 04:39:00,
2013-03-09 23:42:00,53.4,36.7,30.04,SSE,157,3.0,5.0,53,0.00,,,0.00,Wunderground v.1.15,2013-03-10 04:42:00,
2013-03-09 23:43:00,53.4,36.7,30.04,SSE,157,5.0,5.0,53,0.00,,,0.00,Wunderground v.1.15,2013-03-10 04:43:00,
2013-03-09 23:44:00,53.4,36.7,30.04,SSE,157,6.0,7.0,53,0.00,,,0.00,Wunderground v.1.15,2013-03-10 04:44:00,
2013-03-09 23:48:00,53.7,36.5,30.04,SSE,159,3.0,7.0,52,0.00,,,0.00,Wunderground v.1.15,2013-03-10 04:48:00,
2013-03-09 23:49:00,53.7,36.5,30.04,SSE,159,0.0,7.0,52,0.00,,,0.00,Wunderground v.1.15,2013-03-10 04:49:00,
2013-03-09 23:53:00,53.8,36.6,30.04,SSE,158,1.0,6.0,52,0.00,,,0.00,Wunderground v.1.15,2013-03-10 04:53:00,
2013-03-09 23:54:00,53.8,36.6,30.04,SSE,158,2.0,6.0,52,0.00,,,0.00,Wunderground v.1.15,2013-03-10 04:54:00,
2013-03-09 23:55:00,53.9,36.7,30.04,SSE,159,0.0,6.0,52,0.00,,,0.00,Wunderground v.1.15,2013-03-10 04:55:00,
2013-03-09 23:58:00,53.9,36.7,30.04,SSE,157,4.0,9.0,52,0.00,,,0.00,Wunderground v.1.15,2013-03-10 04:58:00,
2013-03-09 23:59:00,53.9,36.7,30.04,SSE,165,5.0,9.0,52,0.00,,,0.00,Wunderground v.1.15,2013-03-10 04:59:00,